PEQUAWKET POND DAM: From 09/18/2018 00:00 to 11/19/2018 00:00

Date LAKE ELEVATION [FT] PRECIPITATION INCREMENT [IN] PRECIPITATION DAILY TOTAL [IN] AIR TEMPERATURE [F] RESERVOIR RELEASE [CFS]
11/17/2018 14:00 455.42 0.06 -- 43.7 89.3
11/17/2018 13:00 455.45 0.04 -- 43.5 90.3
11/17/2018 12:00 455.46 0.03 -- 42.3 89.8
11/17/2018 11:00 455.43 0.02 -- 41.0 90.5
11/17/2018 10:00 455.43 0.02 -- 39.3 88.8
11/17/2018 09:00 455.43 0.01 -- 35.8 90.5
11/17/2018 08:00 455.44 0.01 -- 39.4 91.5
11/17/2018 07:00 455.45 0.01 -- 36.3 91.0
11/17/2018 06:00 455.47 0.01 -- 38.2 91.3
11/17/2018 05:00 455.46 0.01 -- 36.0 91.3
11/17/2018 04:00 455.48 0.00 -- 37.8 92.8
11/17/2018 03:00 455.45 0.00 -- 36.5 92.0
11/17/2018 02:00 455.48 0.00 -- 33.9 94.3
11/17/2018 01:00 455.47 0.00 -- 30.7 95.0
11/17/2018 00:00 455.47 0.00 -- 29.9 93.3
11/16/2018 23:00 455.48 0.00 -- 30.2 95.3
11/16/2018 22:00 455.48 0.00 -- 30.6 94.5
11/16/2018 21:00 455.48 0.00 -- 30.4 95.3
11/16/2018 20:00 455.48 0.00 -- 31.2 95.8
11/16/2018 19:00 455.48 0.00 -- 31.8 94.3
11/16/2018 18:00 455.50 0.00 -- 31.8 95.5
11/16/2018 17:00 455.46 0.00 -- 32.2 96.5
11/16/2018 16:00 455.49 0.00 -- 35.2 97.3
11/16/2018 15:00 455.49 0.00 -- 32.7 97.3
11/16/2018 14:00 455.50 0.00 -- 31.6 98.5
11/16/2018 13:00 455.49 0.00 -- 30.0 97.0
11/16/2018 12:00 455.52 0.00 -- 28.6 98.0
11/16/2018 11:00 455.50 0.00 -- 28.1 96.3
11/16/2018 10:00 455.49 0.00 -- 27.9 97.3
11/16/2018 09:00 455.49 0.00 -- 27.5 98.8
11/16/2018 08:00 455.48 0.00 -- 27.6 96.0
11/16/2018 07:00 455.49 0.00 -- 26.6 97.0
11/16/2018 06:00 455.49 0.00 -- 25.0 97.3
11/16/2018 05:00 455.50 0.00 -- 23.2 98.0
11/16/2018 04:00 455.49 0.00 -- 22.5 98.3
11/16/2018 03:00 455.50 0.00 -- 21.8 98.3
11/16/2018 02:00 455.50 0.00 -- 23.5 100.0
11/16/2018 01:00 455.53 0.00 -- 25.2 100.5
11/16/2018 00:00 455.51 0.00 0.00 24.9 100.8
11/15/2018 23:00 455.49 0.00 -- 24.8 100.5
11/15/2018 22:00 455.52 0.00 -- 25.3 101.3
11/15/2018 21:00 455.52 0.00 -- 25.1 102.8
11/15/2018 20:00 455.53 0.00 -- 26.3 103.8
11/15/2018 19:00 455.52 0.00 -- 26.5 101.3
11/15/2018 18:00 455.52 0.00 -- 27.5 102.0
11/15/2018 17:00 455.50 0.00 -- 28.2 103.5
11/15/2018 16:00 455.56 0.00 -- 29.0 105.8
11/15/2018 15:00 455.53 0.00 -- 29.5 103.0
11/15/2018 14:00 455.56 0.00 -- 27.6 107.3
11/15/2018 13:00 455.54 0.00 -- 27.4 106.8
11/15/2018 12:00 455.54 0.00 -- 22.3 105.5
11/15/2018 11:00 455.53 0.00 -- 20.9 104.3
11/15/2018 10:00 455.56 0.00 -- 15.8 106.8
11/15/2018 09:00 455.55 0.00 -- 12.1 107.3
11/15/2018 08:00 455.53 0.00 -- 11.9 107.0
11/15/2018 07:00 455.56 0.00 -- 9.9 110.0
11/15/2018 06:00 455.56 0.00 -- 11.2 109.3
11/15/2018 05:00 455.58 0.00 -- 12.0 110.3
11/15/2018 04:00 455.60 0.00 -- 11.9 112.8
11/15/2018 03:00 455.58 0.00 -- 14.4 111.5
11/15/2018 02:00 455.58 0.00 -- 14.9 109.5
11/15/2018 01:00 455.61 0.00 -- 15.1 114.3
11/15/2018 00:00 455.63 0.00 0.00 17.4 115.0
11/14/2018 23:00 455.61 0.00 -- 17.2 117.0
11/14/2018 22:00 455.62 0.00 -- 17.6 115.5
11/14/2018 21:00 455.63 0.00 -- 17.7 118.0
11/14/2018 20:00 455.66 0.00 -- 18.0 119.0
11/14/2018 19:00 455.63 0.00 -- 17.8 119.8
11/14/2018 18:00 455.63 0.00 -- 19.0 119.0
11/14/2018 17:00 455.61 0.00 -- 20.4 119.5
11/14/2018 16:00 455.62 0.00 -- 21.9 117.3
11/14/2018 15:00 455.62 0.00 -- 22.0 119.3
11/14/2018 14:00 455.63 0.00 -- 24.7 120.3
11/14/2018 13:00 455.63 0.00 -- 24.9 118.0
11/14/2018 12:00 455.66 0.00 -- 25.3 122.8
11/14/2018 11:00 455.65 0.00 -- 23.2 120.8
11/14/2018 10:00 455.62 0.00 -- 22.2 119.8
11/14/2018 09:00 455.64 0.00 -- 20.4 120.0
11/14/2018 08:00 455.67 0.00 -- 20.3 122.3
11/14/2018 07:00 455.64 0.00 -- 21.9 118.3
11/14/2018 06:00 455.65 0.00 -- 22.0 119.5
11/14/2018 05:00 455.60 0.00 -- 22.7 116.5
11/14/2018 04:00 455.62 0.00 -- 23.3 116.8
11/14/2018 03:00 455.64 0.00 -- 24.5 118.3
11/14/2018 02:00 455.63 0.01 -- 26.7 117.0
11/14/2018 01:00 455.60 0.00 -- 29.7 114.3
11/14/2018 00:00 455.60 0.01 0.01 34.4 113.0
11/13/2018 23:00 455.58 0.02 -- 37.1 110.8
11/13/2018 22:00 455.59 0.03 -- 38.6 110.5
11/13/2018 21:00 455.54 0.04 -- 39.1 106.3
11/13/2018 20:00 455.55 0.06 -- 38.8 106.3
11/13/2018 19:00 455.52 0.03 -- 38.0 105.3
11/13/2018 18:00 455.54 0.05 -- 34.5 104.0
11/13/2018 17:00 455.52 0.07 -- 34.6 102.5
11/13/2018 16:00 455.51 0.12 -- 34.8 101.5
11/13/2018 15:00 455.52 0.17 -- 34.5 99.5
11/13/2018 14:00 455.48 0.00 -- 34.3 97.8
11/13/2018 13:00 455.51 0.00 -- 34.3 100.0
11/13/2018 12:00 455.50 0.00 -- 33.6 97.0
11/13/2018 11:00 455.50 0.00 -- 33.4 97.0
11/13/2018 10:00 455.48 0.00 -- 32.7 95.0
11/13/2018 09:00 455.50 0.00 -- 32.0 95.5
11/13/2018 08:00 455.48 0.00 -- 31.8 95.0
11/13/2018 07:00 455.48 0.00 -- 31.6 95.0
11/13/2018 06:00 455.47 0.00 -- 31.6 95.8
11/13/2018 05:00 455.48 0.00 -- 31.6 95.8
11/13/2018 04:00 455.46 0.00 -- 31.9 94.0
11/13/2018 03:00 455.47 0.00 -- 31.8 95.8
11/13/2018 02:00 455.47 0.00 -- 31.9 93.3
11/13/2018 01:00 455.47 0.00 -- 32.2 95.0
11/13/2018 00:00 455.49 0.00 0.60 31.2 98.0
11/12/2018 23:00 455.50 0.00 -- 30.4 97.8
11/12/2018 22:00 455.48 0.00 -- 29.9 97.5
11/12/2018 21:00 455.51 0.00 -- 30.0 98.0
11/12/2018 20:00 455.51 0.00 -- 30.0 97.5
11/12/2018 19:00 455.50 0.00 -- 31.7 99.0
11/12/2018 18:00 455.50 0.00 -- 36.3 98.0
11/12/2018 17:00 455.49 0.00 -- 42.9 98.3
11/12/2018 16:00 455.52 0.01 -- 43.9 101.0
11/12/2018 15:00 455.53 0.01 -- 45.6 102.8
11/12/2018 14:00 455.49 0.01 -- 44.5 99.0
11/12/2018 13:00 455.53 0.00 -- 43.9 103.8
11/12/2018 12:00 455.51 0.00 -- 41.8 100.8
11/12/2018 11:00 455.55 0.00 -- 36.0 104.5
11/12/2018 10:00 455.52 0.00 -- 31.0 102.8
11/12/2018 09:00 455.54 0.00 -- 24.4 104.0
11/12/2018 08:00 455.52 0.00 -- 21.0 105.0
11/12/2018 07:00 455.56 0.00 -- 21.0 105.0
11/12/2018 06:00 455.55 0.00 -- 19.1 104.5
11/12/2018 05:00 455.55 0.00 -- 21.0 106.8
11/12/2018 04:00 455.53 0.00 -- 20.7 106.3
11/12/2018 03:00 455.57 0.00 -- 20.6 107.5
11/12/2018 02:00 455.56 0.00 -- 21.0 105.8
11/12/2018 01:00 455.55 0.00 -- 22.3 106.5
11/12/2018 00:00 455.55 0.00 0.03 22.6 109.3
11/11/2018 23:00 455.56 0.00 -- 23.5 108.5
11/11/2018 22:00 455.58 0.00 -- 24.2 109.0
11/11/2018 21:00 455.58 0.00 -- 26.3 110.0
11/11/2018 20:00 455.56 0.00 -- 27.5 111.5
11/11/2018 19:00 455.60 0.00 -- 28.9 112.5
11/11/2018 18:00 455.56 0.00 -- 32.7 110.8
11/11/2018 17:00 455.56 0.00 -- 36.1 110.8
11/11/2018 16:00 455.58 0.00 -- 37.0 112.8
11/11/2018 15:00 455.58 0.00 -- 37.2 113.5
11/11/2018 14:00 455.58 0.00 -- 37.1 111.3
11/11/2018 13:00 455.61 0.00 -- 35.4 112.3
11/11/2018 12:00 455.59 0.00 -- 34.0 113.0
11/11/2018 11:00 455.63 0.00 -- 34.4 115.8
11/11/2018 10:00 455.58 0.00 -- 31.7 114.3
11/11/2018 09:00 455.61 0.00 -- 30.7 116.8
11/11/2018 08:00 455.59 0.00 -- 27.4 115.5
11/11/2018 07:00 455.61 0.00 -- 28.3 114.3
11/11/2018 06:00 455.60 0.00 -- 29.2 116.3
11/11/2018 05:00 455.60 0.00 -- 30.5 113.5
11/11/2018 04:00 455.60 0.00 -- 31.3 114.5
11/11/2018 03:00 455.62 0.00 -- 32.1 114.5
11/11/2018 02:00 455.60 0.00 -- 31.9 117.3
11/11/2018 01:00 455.61 0.00 -- 33.7 114.8
11/11/2018 00:00 455.61 0.00 0.00 34.5 116.0
11/10/2018 23:00 455.60 0.00 -- 34.9 116.0
11/10/2018 22:00 455.57 0.00 -- 34.6 110.8
11/10/2018 21:00 455.60 0.00 -- 34.9 113.3
11/10/2018 20:00 455.57 0.00 -- 35.9 111.5
11/10/2018 19:00 455.60 0.00 -- 36.3 112.5
11/10/2018 18:00 455.56 0.00 -- 35.9 111.8
11/10/2018 17:00 455.57 0.02 -- 38.3 108.3
11/10/2018 16:00 455.58 0.05 -- 41.4 108.0
11/10/2018 15:00 455.56 0.06 -- 39.6 106.0
11/10/2018 14:00 455.54 0.03 -- 41.7 103.5
11/10/2018 13:00 455.53 0.10 -- 42.3 102.0
11/10/2018 12:00 455.54 0.07 -- 39.6 101.5
11/10/2018 11:00 455.51 0.08 -- 38.5 99.8
11/10/2018 10:00 455.52 0.05 -- 37.2 99.8
11/10/2018 09:00 455.49 0.05 -- 35.7 98.8
11/10/2018 08:00 455.48 0.06 -- 36.6 97.0
11/10/2018 07:00 455.49 0.06 -- 36.1 96.3
11/10/2018 06:00 455.50 0.07 -- 35.6 97.3
11/10/2018 05:00 455.47 0.05 -- 35.2 96.0
11/10/2018 04:00 455.48 0.01 -- 34.3 95.3
11/10/2018 03:00 455.48 0.01 -- 33.5 95.8
11/10/2018 02:00 455.47 0.00 -- 33.0 94.3
11/10/2018 01:00 455.49 0.01 -- 33.1 94.0
11/10/2018 00:00 455.48 0.01 0.78 33.2 94.0
11/09/2018 23:00 455.46 0.06 -- 33.3 78.0
11/09/2018 22:00 455.46 0.03 -- 36.8 93.0
11/09/2018 21:00 455.46 0.09 -- 37.5 93.0
11/09/2018 20:00 455.47 0.00 -- 39.5 92.5
11/09/2018 19:00 455.45 0.00 -- 41.4 92.8
11/09/2018 18:00 455.49 0.00 -- 41.5 95.0
11/09/2018 17:00 455.48 0.00 -- 42.1 94.8
11/09/2018 16:00 455.46 0.00 -- 43.8 93.8
11/09/2018 15:00 455.47 0.00 -- 44.6 96.0
11/09/2018 14:00 455.50 0.00 -- 44.7 95.8
11/09/2018 13:00 455.47 0.00 -- 45.3 95.3
11/09/2018 12:00 455.48 0.00 -- 44.7 96.8
11/09/2018 11:00 455.50 0.00 -- 42.4 98.0
11/09/2018 10:00 455.48 0.00 -- 37.8 96.5
11/09/2018 09:00 455.49 0.00 -- 31.9 98.0
11/09/2018 08:00 455.51 0.00 -- 28.8 99.3
11/09/2018 07:00 455.50 0.00 -- 28.8 99.8
11/09/2018 06:00 455.51 0.00 -- 30.4 99.5
11/09/2018 05:00 455.51 0.00 -- 32.9 101.0
11/09/2018 04:00 455.52 0.00 -- 36.8 101.3
11/09/2018 03:00 455.54 0.00 -- 40.9 104.0
11/09/2018 02:00 455.54 0.00 -- 37.2 103.3
11/09/2018 01:00 455.53 0.00 -- 41.5 103.3
11/09/2018 00:00 455.55 0.00 0.19 41.4 104.8
11/08/2018 23:00 455.55 0.00 -- 37.1 106.3
11/08/2018 22:00 455.54 0.00 -- 38.8 107.0
11/08/2018 21:00 455.54 0.00 -- 38.9 106.3
11/08/2018 20:00 455.56 0.00 -- 38.9 107.3
11/08/2018 19:00 455.55 0.00 -- 42.2 107.8
11/08/2018 18:00 455.55 0.00 -- 45.7 107.5
11/08/2018 17:00 455.57 0.00 -- 47.8 109.3
11/08/2018 16:00 455.55 0.00 -- 49.1 108.3
11/08/2018 15:00 455.58 0.00 -- 50.3 112.8
11/08/2018 14:00 455.58 0.00 -- 50.9 113.5
11/08/2018 13:00 455.59 0.00 -- 50.2 113.3
11/08/2018 12:00 455.59 0.00 -- 48.7 113.3
11/08/2018 11:00 455.61 0.00 -- 48.3 116.5
11/08/2018 10:00 455.62 0.00 -- 48.4 115.0
11/08/2018 09:00 455.64 0.00 -- 45.0 116.5
11/08/2018 08:00 455.64 0.00 -- 35.8 119.0
11/08/2018 07:00 455.64 0.00 -- 38.3 118.8
11/08/2018 06:00 455.63 0.00 -- 41.1 118.3
11/08/2018 05:00 455.64 0.00 -- 44.4 119.5
11/08/2018 04:00 455.67 0.00 -- 45.8 121.8
11/08/2018 03:00 455.64 0.00 -- 46.8 123.3
11/08/2018 02:00 455.64 0.00 -- 46.9 121.0
11/08/2018 01:00 455.66 0.00 -- 48.6 123.5
11/08/2018 00:00 455.67 0.00 0.00 50.0 123.3
11/07/2018 23:00 455.66 0.00 -- 49.3 124.3
11/07/2018 22:00 455.66 0.00 -- 46.9 124.5
11/07/2018 21:00 455.68 0.00 -- 46.5 125.3
11/07/2018 20:00 455.67 0.00 -- 50.1 125.0
11/07/2018 19:00 455.70 0.00 -- 52.0 128.5
11/07/2018 18:00 455.72 0.00 -- 53.5 127.0
11/07/2018 17:00 455.65 0.00 -- 54.9 126.8
11/07/2018 16:00 455.72 0.00 -- 55.9 128.3
11/07/2018 15:00 455.66 0.00 -- 57.5 127.3
11/07/2018 14:00 455.70 0.00 -- 56.2 128.8
11/07/2018 13:00 455.71 0.00 -- 58.1 131.0
11/07/2018 12:00 455.69 0.00 -- 57.4 129.8
11/07/2018 11:00 455.68 0.00 -- 56.3 127.5
11/07/2018 10:00 455.67 0.00 -- 55.1 125.0
11/07/2018 09:00 455.68 0.00 -- 52.7 129.0
11/07/2018 08:00 455.70 0.00 -- 48.9 128.3
11/07/2018 07:00 455.69 0.00 -- 47.3 129.8
11/07/2018 06:00 455.68 0.00 -- 48.9 127.0
11/07/2018 05:00 455.66 0.00 -- 48.7 124.5
11/07/2018 04:00 455.66 0.00 -- 49.0 123.5
11/07/2018 03:00 455.66 0.00 -- 48.3 125.0
11/07/2018 02:00 455.65 0.00 -- 49.1 123.5
11/07/2018 01:00 455.64 0.00 -- 48.9 121.8
11/07/2018 00:00 455.61 0.00 0.00 47.8 117.5
11/06/2018 23:00 455.65 0.00 -- 47.0 120.0
11/06/2018 22:00 455.63 0.00 -- 45.9 116.8
11/06/2018 21:00 455.62 0.00 -- 46.3 115.3
11/06/2018 20:00 455.58 0.04 -- 46.2 112.3
11/06/2018 19:00 455.59 0.11 -- 46.4 113.3
11/06/2018 18:00 455.57 0.01 -- 46.8 108.5
11/06/2018 17:00 455.60 0.07 -- 47.3 109.0
11/06/2018 16:00 455.55 0.32 -- 47.0 104.8
11/06/2018 15:00 455.54 0.09 -- 47.4 104.3
11/06/2018 14:00 455.52 0.02 -- 48.2 102.5
11/06/2018 13:00 455.54 0.00 -- 47.8 103.5
11/06/2018 12:00 455.52 0.01 -- 47.1 102.5
11/06/2018 11:00 455.52 0.00 -- 46.1 101.8
11/06/2018 10:00 455.53 0.02 -- 43.0 102.5
11/06/2018 09:00 455.52 0.00 -- 41.0 101.8
11/06/2018 08:00 455.53 0.03 -- 39.2 102.0
11/06/2018 07:00 455.53 0.02 -- 38.5 105.3
11/06/2018 06:00 455.53 0.03 -- 38.0 103.3
11/06/2018 05:00 455.54 0.04 -- 37.9 105.0
11/06/2018 04:00 455.54 0.05 -- 37.3 104.3
11/06/2018 03:00 455.53 0.08 -- 37.0 104.5
11/06/2018 02:00 455.54 0.03 -- 37.1 105.8
11/06/2018 01:00 455.56 0.00 -- 36.8 105.8
11/06/2018 00:00 455.54 0.00 0.97 36.7 105.8
11/05/2018 23:00 455.54 0.00 -- 36.7 106.3
11/05/2018 22:00 455.54 0.00 -- 36.9 106.5
11/05/2018 21:00 455.56 0.00 -- 36.6 108.8
11/05/2018 20:00 455.54 0.00 -- 36.8 107.3
11/05/2018 19:00 455.56 0.00 -- 37.4 109.3
11/05/2018 18:00 455.58 0.00 -- 37.6 109.3
11/05/2018 17:00 455.61 0.00 -- 37.7 113.0
11/05/2018 16:00 455.59 0.00 -- 38.5 112.0
11/05/2018 15:00 455.58 0.00 -- 37.7 109.8
11/05/2018 14:00 455.61 0.00 -- 37.5 114.8
11/05/2018 13:00 455.58 0.00 -- 36.6 113.0
11/05/2018 12:00 455.62 0.00 -- 35.4 117.5
11/05/2018 11:00 455.62 0.00 -- 33.2 117.5
11/05/2018 10:00 455.61 0.00 -- 32.1 117.3
11/05/2018 09:00 455.63 0.00 -- 30.7 118.3
11/05/2018 08:00 455.64 0.00 -- 29.1 120.5
11/05/2018 07:00 455.64 0.00 -- 27.3 120.5
11/05/2018 06:00 455.66 0.00 -- 26.9 123.8
11/05/2018 05:00 455.66 0.00 -- 27.3 123.0
11/05/2018 04:00 455.65 0.00 -- 28.4 122.3
11/05/2018 03:00 455.64 0.00 -- 28.6 125.8
11/05/2018 02:00 455.66 0.00 -- 28.1 127.8
11/05/2018 01:00 455.67 0.00 -- 28.5 128.0
11/05/2018 00:00 455.74 0.00 0.00 28.9 132.0
11/04/2018 23:00 455.70 0.00 -- 30.2 129.5
11/04/2018 22:00 455.70 0.00 -- 30.2 129.8
11/04/2018 21:00 455.75 0.00 -- 31.1 133.3
11/04/2018 20:00 455.70 0.00 -- 32.6 131.5
11/04/2018 19:00 455.72 0.00 -- 34.9 133.3
11/04/2018 18:00 455.69 0.00 -- 38.8 137.3
11/04/2018 17:00 455.77 0.00 -- 43.0 136.8
11/04/2018 16:00 455.74 0.00 -- 44.1 137.8
11/04/2018 15:00 455.76 0.00 -- 44.1 141.3
11/04/2018 14:00 455.76 0.00 -- 44.7 141.8
11/04/2018 13:00 455.76 0.00 -- 44.7 141.8
11/04/2018 12:00 455.75 0.00 -- 44.2 138.5
11/04/2018 11:00 455.76 0.00 -- 42.3 143.5
11/04/2018 10:00 455.77 0.00 -- 41.5 142.5
11/04/2018 09:00 455.77 0.00 -- 38.2 144.3
11/04/2018 08:00 455.80 0.00 -- 30.8 154.5
11/04/2018 07:00 455.77 0.00 -- 31.1 146.8
11/04/2018 06:00 455.84 0.00 -- 32.5 157.0
11/04/2018 05:00 455.81 0.00 -- 34.4 157.5
11/04/2018 04:00 455.81 0.00 -- 36.8 152.5
11/04/2018 03:00 455.81 0.00 -- 40.9 150.8
11/04/2018 02:00 455.83 0.00 -- 41.6 152.3
11/04/2018 01:00 455.81 0.00 -- 42.3 150.0
11/04/2018 00:00 455.81 0.00 0.00 44.7 155.5
11/03/2018 23:00 455.82 0.00 -- 44.7 150.0
11/03/2018 22:00 455.75 0.00 -- 45.0 148.3
11/03/2018 21:00 455.82 0.00 -- 44.5 150.5
11/03/2018 20:00 455.77 0.00 -- 43.3 146.8
11/03/2018 19:00 455.83 0.01 -- 43.2 151.8
11/03/2018 18:00 455.81 0.01 -- 45.1 150.3
11/03/2018 17:00 455.76 0.12 -- 45.7 141.8
11/03/2018 16:00 455.75 0.04 -- 49.7 136.8
11/03/2018 15:00 455.72 0.02 -- 49.2 134.3
11/03/2018 14:00 455.71 0.03 -- 49.1 132.8
11/03/2018 13:00 455.71 0.00 -- 48.6 130.5
11/03/2018 12:00 455.72 0.00 -- 48.1 126.8
11/03/2018 11:00 455.68 0.04 -- 47.8 121.8
11/03/2018 10:00 455.68 0.11 -- 47.3 119.5
11/03/2018 09:00 455.64 0.09 -- 47.0 115.5
11/03/2018 08:00 455.58 0.16 -- 46.9 111.5
11/03/2018 07:00 455.56 0.10 -- 46.3 106.5
11/03/2018 06:00 455.52 0.05 -- 46.4 103.8
11/03/2018 05:00 455.54 0.07 -- 46.3 102.0
11/03/2018 04:00 455.49 0.05 -- 46.5 97.5
11/03/2018 03:00 455.48 0.15 -- 46.3 96.3
11/03/2018 02:00 455.48 0.22 -- 46.3 95.5
11/03/2018 01:00 455.45 0.06 -- 46.5 91.5
11/03/2018 00:00 455.44 0.10 1.33 46.8 89.5
11/02/2018 23:00 455.44 0.09 -- 47.2 88.8
11/02/2018 22:00 455.43 0.13 -- 47.6 87.8
11/02/2018 21:00 455.41 0.00 -- 47.7 86.5
11/02/2018 20:00 455.42 0.00 -- 47.7 87.5
11/02/2018 19:00 455.42 0.00 -- 47.8 86.3
11/02/2018 18:00 455.42 0.01 -- 48.0 87.0
11/02/2018 17:00 455.42 0.00 -- 48.1 85.3
11/02/2018 16:00 455.42 0.00 -- 48.2 85.0
11/02/2018 15:00 455.42 0.00 -- 47.8 86.8
11/02/2018 14:00 455.42 0.00 -- 47.3 85.3
11/02/2018 13:00 455.41 0.05 -- 47.2 84.8
11/02/2018 12:00 455.42 0.02 -- 46.0 85.5
11/02/2018 11:00 455.42 0.02 -- 45.3 86.0
11/02/2018 10:00 455.43 0.02 -- 44.7 88.3
11/02/2018 09:00 455.44 0.06 -- 44.6 90.5
11/02/2018 08:00 455.45 0.14 -- 44.6 92.0
11/02/2018 07:00 455.45 0.22 -- 44.5 94.0
11/02/2018 06:00 455.48 0.15 -- 44.1 94.8
11/02/2018 05:00 455.48 0.04 -- 44.2 97.0
11/02/2018 04:00 455.52 0.05 -- 44.2 102.5
11/02/2018 03:00 455.53 0.04 -- 44.1 105.5
11/02/2018 02:00 455.56 0.04 -- 44.2 111.0
11/02/2018 01:00 455.61 0.00 -- 44.4 118.0
11/02/2018 00:00 455.65 0.00 1.18 44.4 123.0
11/01/2018 23:00 455.68 0.00 -- 44.5 129.5
11/01/2018 22:00 455.74 0.00 -- 44.6 138.8
11/01/2018 21:00 455.75 0.00 -- 44.3 147.5
11/01/2018 20:00 455.80 0.00 -- 44.8 157.3
11/01/2018 19:00 455.88 0.01 -- 45.0 166.5
11/01/2018 18:00 455.88 0.00 -- 45.5 177.8
11/01/2018 17:00 455.99 0.00 -- 45.3 189.0
11/01/2018 16:00 456.01 0.01 -- 44.9 200.5
11/01/2018 15:00 456.12 0.00 -- 45.2 213.5
11/01/2018 14:00 456.22 0.00 -- 44.2 228.0
11/01/2018 13:00 456.22 0.00 -- 43.9 123.3
11/01/2018 12:00 457.44 0.00 -- 43.3 37.8
11/01/2018 11:00 457.45 0.00 -- 40.8 39.3
11/01/2018 10:00 457.46 0.00 -- 38.2 39.8
11/01/2018 09:00 457.46 0.00 -- 36.9 40.3
11/01/2018 08:00 457.47 0.00 -- 36.8 41.0
11/01/2018 07:00 457.47 0.00 -- 36.8 41.0
11/01/2018 06:00 457.47 0.00 -- 37.2 41.3
11/01/2018 05:00 457.47 0.00 -- 38.5 41.5
11/01/2018 04:00 457.47 0.00 -- 40.0 42.0
11/01/2018 03:00 457.48 0.00 -- 39.8 42.0
11/01/2018 02:00 457.48 0.00 -- 39.4 42.0
11/01/2018 01:00 457.48 0.00 -- 39.8 42.5
11/01/2018 00:00 457.48 0.00 0.02 39.3 43.0
10/31/2018 23:00 457.49 0.00 -- 38.9 43.0
10/31/2018 22:00 457.49 0.00 -- 38.9 43.5
10/31/2018 21:00 457.49 0.00 -- 39.1 44.0
10/31/2018 20:00 457.50 0.00 -- 39.7 44.0
10/31/2018 19:00 457.50 0.00 -- 41.3 44.3
10/31/2018 18:00 457.50 0.00 -- 42.3 45.0
10/31/2018 17:00 457.50 0.00 -- 41.7 45.0
10/31/2018 16:00 457.51 0.00 -- 41.4 45.3
10/31/2018 15:00 457.51 0.00 -- 42.0 45.5
10/31/2018 14:00 457.51 0.00 -- 39.2 46.0
10/31/2018 13:00 457.51 0.00 -- 39.0 46.0
10/31/2018 12:00 457.52 0.00 -- 36.4 46.0
10/31/2018 11:00 457.52 0.00 -- 34.7 46.5
10/31/2018 10:00 457.52 0.00 -- 32.0 47.0
10/31/2018 09:00 457.52 0.00 -- 27.2 47.3
10/31/2018 08:00 457.52 0.00 -- 26.6 47.8
10/31/2018 07:00 457.53 0.00 -- 27.4 48.0
10/31/2018 06:00 457.53 0.00 -- 26.8 48.3
10/31/2018 05:00 457.53 0.00 -- 27.8 48.8
10/31/2018 04:00 457.54 0.00 -- 28.3 49.0
10/31/2018 03:00 457.54 0.00 -- 28.0 49.3
10/31/2018 02:00 457.54 0.00 -- 28.9 50.0
10/31/2018 01:00 457.55 0.00 -- 29.4 50.0
10/31/2018 00:00 457.55 0.00 0.00 30.3 50.3
10/30/2018 23:00 457.55 0.00 -- 31.0 50.5
10/30/2018 22:00 457.56 0.00 -- 33.9 51.3
10/30/2018 21:00 457.56 0.00 -- 36.0 51.3
10/30/2018 20:00 457.56 0.00 -- 38.2 52.0
10/30/2018 19:00 457.56 0.00 -- 39.3 52.3
10/30/2018 18:00 457.57 0.00 -- 40.9 52.3
10/30/2018 17:00 457.57 0.00 -- 43.3 53.5
10/30/2018 16:00 457.58 0.00 -- 42.4 53.5
10/30/2018 15:00 457.58 0.00 -- 42.8 54.5
10/30/2018 14:00 457.59 0.00 -- 44.3 54.8
10/30/2018 13:00 457.59 0.00 -- 44.0 54.5
10/30/2018 12:00 457.57 0.00 -- 43.2 53.8
10/30/2018 11:00 457.58 0.00 -- 41.4 54.0
10/30/2018 10:00 457.57 0.00 -- 41.7 54.5
10/30/2018 09:00 457.58 0.00 -- 39.1 54.5
10/30/2018 08:00 457.58 0.01 -- 39.3 54.5
10/30/2018 07:00 457.59 0.00 -- 39.7 54.8
10/30/2018 06:00 457.58 0.00 -- 39.6 54.8
10/30/2018 05:00 457.58 0.00 -- 37.3 54.3
10/30/2018 04:00 457.58 0.00 -- 36.7 54.0
10/30/2018 03:00 457.58 0.00 -- 36.7 54.0
10/30/2018 02:00 457.58 0.00 -- 36.4 54.0
10/30/2018 01:00 457.58 0.00 -- 35.3 53.8
10/30/2018 00:00 457.58 0.00 0.01 36.9 53.8
10/29/2018 23:00 457.58 0.00 -- 39.2 53.5
10/29/2018 22:00 457.57 0.00 -- 39.2 53.0
10/29/2018 21:00 457.57 0.00 -- 40.4 53.0
10/29/2018 20:00 457.57 0.00 -- 42.3 53.0
10/29/2018 19:00 457.57 0.00 -- 44.2 53.0
10/29/2018 18:00 457.57 0.00 -- 47.0 52.8
10/29/2018 17:00 457.57 0.02 -- 44.5 52.5
10/29/2018 16:00 457.56 0.02 -- 43.9 52.0
10/29/2018 15:00 457.56 0.04 -- 42.5 51.3
10/29/2018 14:00 457.56 0.06 -- 41.5 51.0
10/29/2018 13:00 457.55 0.02 -- 40.7 50.0
10/29/2018 12:00 457.55 0.02 -- 40.5 50.0
10/29/2018 11:00 457.54 0.00 -- 40.3 49.8
10/29/2018 10:00 457.54 0.00 -- 39.6 49.3
10/29/2018 09:00 457.54 0.00 -- 39.0 49.5
10/29/2018 08:00 457.54 0.01 -- 39.0 49.3
10/29/2018 07:00 457.54 0.02 -- 39.0 49.0
10/29/2018 06:00 457.54 0.00 -- 38.8 48.3
10/29/2018 05:00 457.53 0.00 -- 38.6 48.0
10/29/2018 04:00 457.53 0.00 -- 38.0 48.0
10/29/2018 03:00 457.53 0.00 -- 38.3 47.8
10/29/2018 02:00 457.52 0.00 -- 39.6 47.0
10/29/2018 01:00 457.52 0.00 -- 40.8 46.8
10/29/2018 00:00 457.52 0.00 0.21 40.8 46.3
10/28/2018 23:00 457.51 0.00 -- 40.8 46.0
10/28/2018 22:00 457.51 0.00 -- 41.8 45.0
10/28/2018 21:00 457.50 0.00 -- 41.8 44.3
10/28/2018 20:00 457.50 0.00 -- 42.2 44.0
10/28/2018 19:00 457.49 0.00 -- 42.5 43.0
10/28/2018 18:00 457.49 0.00 -- 43.4 43.3
10/28/2018 17:00 457.48 0.00 -- 43.8 42.3
10/28/2018 16:00 457.47 0.00 -- 44.4 41.3
10/28/2018 15:00 457.47 0.01 -- 42.7 40.8
10/28/2018 14:00 457.46 0.05 -- 41.8 39.8
10/28/2018 13:00 457.46 0.09 -- 41.2 39.0
10/28/2018 12:00 457.45 0.08 -- 39.8 38.0
10/28/2018 11:00 457.44 0.05 -- 38.6 37.5
10/28/2018 10:00 457.43 0.06 -- 37.5 37.0
10/28/2018 09:00 457.43 0.04 -- 36.7 36.3
10/28/2018 08:00 457.42 0.03 -- 36.4 35.3
10/28/2018 07:00 457.42 0.03 -- 36.2 35.0
10/28/2018 06:00 457.41 0.03 -- 36.3 34.5
10/28/2018 05:00 457.41 0.02 -- 36.3 34.0
10/28/2018 04:00 457.40 0.04 -- 36.4 33.3
10/28/2018 03:00 457.40 0.05 -- 36.2 33.3
10/28/2018 02:00 457.39 0.05 -- 35.8 32.0
10/28/2018 01:00 457.39 0.04 -- 35.3 32.0
10/28/2018 00:00 457.39 0.05 0.67 35.3 31.5
10/27/2018 23:00 457.39 0.06 -- 35.4 31.8
10/27/2018 22:00 457.38 0.07 -- 35.4 31.3
10/27/2018 21:00 457.38 0.00 -- 35.6 31.5
10/27/2018 20:00 457.37 0.00 -- 35.3 31.0
10/27/2018 19:00 457.38 0.00 -- 34.9 30.8
10/27/2018 18:00 457.37 0.01 -- 34.4 30.3
10/27/2018 17:00 457.39 0.00 -- 33.6 31.8
10/27/2018 16:00 457.36 0.00 -- 33.1 29.5
10/27/2018 15:00 457.37 0.00 -- 33.3 29.3
10/27/2018 14:00 457.35 0.00 -- 33.4 28.0
10/27/2018 13:00 457.35 0.00 -- 33.7 28.0
10/27/2018 12:00 457.35 0.00 -- 37.4 28.0
10/27/2018 11:00 457.35 0.00 -- 37.3 28.3
10/27/2018 10:00 457.35 0.00 -- 33.9 28.8
10/27/2018 09:00 457.36 0.00 -- 32.4 29.0
10/27/2018 08:00 457.36 0.00 -- 32.0 29.0
10/27/2018 07:00 457.36 0.00 -- 31.6 29.0
10/27/2018 06:00 457.36 0.00 -- 31.4 29.0
10/27/2018 05:00 457.37 0.00 -- 31.2 30.0
10/27/2018 04:00 457.37 0.00 -- 30.5 30.0
10/27/2018 03:00 457.37 0.00 -- 31.0 30.0
10/27/2018 02:00 457.37 0.00 -- 31.0 30.0
10/27/2018 01:00 457.37 0.00 -- 31.5 30.5
10/27/2018 00:00 457.37 0.00 0.19 30.6 30.3
10/26/2018 23:00 457.37 0.00 -- 31.2 31.0
10/26/2018 22:00 457.38 0.00 -- 29.1 31.0
10/26/2018 21:00 457.38 0.00 -- 31.2 31.8
10/26/2018 20:00 457.39 0.00 -- 33.7 32.0
10/26/2018 19:00 457.39 0.00 -- 38.0 32.0
10/26/2018 18:00 457.39 0.00 -- 43.7 32.3
10/26/2018 17:00 457.39 0.00 -- 43.7 32.8
10/26/2018 16:00 457.40 0.00 -- 44.4 33.3
10/26/2018 15:00 457.40 0.00 -- 42.1 33.5
10/26/2018 14:00 457.41 0.00 -- 41.0 34.0
10/26/2018 13:00 457.41 0.00 -- 40.8 34.0
10/26/2018 12:00 457.41 0.00 -- 36.6 34.5
10/26/2018 11:00 457.41 0.00 -- 36.9 35.3
10/26/2018 10:00 457.41 0.00 -- 33.9 35.5
10/26/2018 09:00 457.43 0.00 -- 31.8 36.0
10/26/2018 08:00 457.42 0.00 -- 32.0 35.8
10/26/2018 07:00 457.43 0.00 -- 31.6 36.3
10/26/2018 06:00 457.43 0.00 -- 31.5 37.0
10/26/2018 05:00 457.44 0.00 -- 31.6 37.5
10/26/2018 04:00 457.44 0.00 -- 31.1 37.8
10/26/2018 03:00 457.44 0.00 -- 31.5 39.0
10/26/2018 02:00 457.47 0.00 -- 32.0 40.0
10/26/2018 01:00 457.46 0.00 -- 32.4 39.0
10/26/2018 00:00 457.47 0.00 0.00 32.7 40.0
10/25/2018 23:00 457.47 0.00 -- 32.8 40.5
10/25/2018 22:00 457.45 0.00 -- 32.6 40.0
10/25/2018 21:00 457.47 0.00 -- 32.9 42.0
10/25/2018 20:00 457.48 0.00 -- 33.7 41.8
10/25/2018 19:00 457.47 0.00 -- 34.5 41.3
10/25/2018 18:00 457.47 0.00 -- 35.3 42.5
10/25/2018 17:00 457.49 0.00 -- 36.0 42.3
10/25/2018 16:00 457.49 0.00 -- 37.6 44.5
10/25/2018 15:00 457.50 0.00 -- 38.9 44.8
10/25/2018 14:00 457.51 0.00 -- 38.5 45.8
10/25/2018 13:00 457.48 0.00 -- 42.2 44.0
10/25/2018 12:00 457.49 0.00 -- 41.1 45.3
10/25/2018 11:00 457.49 0.00 -- 39.2 44.5
10/25/2018 10:00 457.50 0.00 -- 38.3 45.5
10/25/2018 09:00 457.50 0.00 -- 38.8 44.5
10/25/2018 08:00 457.51 0.00 -- 37.5 45.0
10/25/2018 07:00 457.50 0.00 -- 37.6 45.0
10/25/2018 06:00 457.51 0.00 -- 38.3 45.8
10/25/2018 05:00 457.52 0.00 -- 38.9 45.8
10/25/2018 04:00 457.51 0.00 -- 39.4 46.3
10/25/2018 03:00 457.51 0.00 -- 39.9 46.0
10/25/2018 02:00 457.51 0.00 -- 39.4 45.8
10/25/2018 01:00 457.50 0.00 -- 40.1 45.0
10/25/2018 00:00 457.51 0.00 0.00 39.5 45.3
10/24/2018 23:00 457.51 0.00 -- 40.2 45.5
10/24/2018 22:00 457.50 0.00 -- 40.3 44.8
10/24/2018 21:00 457.50 0.00 -- 40.5 44.3
10/24/2018 20:00 457.50 0.00 -- 41.7 43.5
10/24/2018 19:00 457.49 0.00 -- 42.6 43.5
10/24/2018 18:00 457.49 0.00 -- 43.9 42.0
10/24/2018 17:00 457.47 0.00 -- 45.1 41.5
10/24/2018 16:00 457.48 0.00 -- 45.4 41.5
10/24/2018 15:00 457.46 0.00 -- 44.9 40.3
10/24/2018 14:00 457.46 0.00 -- 44.7 39.0
10/24/2018 13:00 457.44 0.00 -- 41.5 37.8
10/24/2018 12:00 457.44 0.00 -- 40.6 36.5
10/24/2018 11:00 457.42 0.04 -- 39.4 35.5
10/24/2018 10:00 457.41 0.01 -- 38.5 33.8
10/24/2018 09:00 457.39 0.01 -- 38.0 32.3
10/24/2018 08:00 457.38 0.01 -- 37.9 30.5
10/24/2018 07:00 457.37 0.02 -- 37.9 29.3
10/24/2018 06:00 457.35 0.02 -- 38.0 27.5
10/24/2018 05:00 457.34 0.04 -- 38.0 26.3
10/24/2018 04:00 457.33 0.04 -- 37.8 25.3
10/24/2018 03:00 457.32 0.03 -- 38.2 24.3
10/24/2018 02:00 457.31 0.00 -- 38.0 23.3
10/24/2018 01:00 457.29 0.10 -- 38.3 21.8
10/24/2018 00:00 457.28 0.11 0.32 38.3 20.8
10/23/2018 23:00 457.27 0.00 -- 38.2 19.5
10/23/2018 22:00 457.24 -- -- 36.8 17.5
10/23/2018 21:00 457.23 -- -- 36.3 16.7
10/23/2018 20:00 457.22 0.17 -- 36.2 15.3
10/23/2018 19:00 457.20 0.10 -- 38.4 14.0
10/23/2018 18:00 457.20 0.08 -- 39.9 13.8
10/23/2018 17:00 457.19 0.03 -- 40.8 13.0
10/23/2018 16:00 457.18 0.00 -- 42.8 13.0
10/23/2018 15:00 457.19 0.00 -- 43.6 13.0
10/23/2018 14:00 457.18 0.00 -- 43.8 13.0
10/23/2018 13:00 457.19 0.00 -- 44.3 13.0
10/23/2018 12:00 457.18 0.00 -- 44.8 13.0
10/23/2018 11:00 457.18 0.00 -- 41.2 13.0
10/23/2018 10:00 457.18 0.00 -- 37.7 13.0
10/23/2018 09:00 457.19 0.00 -- 35.1 13.0
10/23/2018 08:00 457.19 0.00 -- 35.1 13.0
10/23/2018 07:00 457.19 0.00 -- 35.5 13.0
10/23/2018 06:00 457.19 0.00 -- 35.5 13.0
10/23/2018 05:00 457.19 0.00 -- 35.9 13.0
10/23/2018 04:00 457.19 0.00 -- 36.0 13.0
10/23/2018 03:00 457.19 0.00 -- 36.5 13.0
10/23/2018 02:00 457.19 0.00 -- 36.5 13.0
10/23/2018 01:00 457.19 0.00 -- 36.5 13.0
10/23/2018 00:00 457.19 0.00 -- 35.9 13.0
10/22/2018 23:00 457.19 0.00 -- 35.5 13.0
10/22/2018 22:00 457.19 0.00 -- 37.5 13.8
10/22/2018 21:00 457.19 0.00 -- 39.9 14.0
10/22/2018 20:00 457.19 0.00 -- 42.4 13.8
10/22/2018 19:00 457.19 0.00 -- 44.4 14.0
10/22/2018 18:00 457.20 0.00 -- 47.1 14.0
10/22/2018 17:00 457.20 0.00 -- 47.7 14.0
10/22/2018 16:00 457.20 0.00 -- 47.6 14.8
10/22/2018 15:00 457.20 0.00 -- 46.5 14.5
10/22/2018 14:00 457.20 0.00 -- 44.0 14.5
10/22/2018 13:00 457.20 0.00 -- 43.5 14.0
10/22/2018 12:00 457.19 0.00 -- 42.0 13.8
10/22/2018 11:00 457.20 0.00 -- 40.0 14.0
10/22/2018 10:00 457.20 0.00 -- 37.4 14.0
10/22/2018 09:00 457.20 0.00 -- 34.4 14.0
10/22/2018 08:00 457.20 0.00 -- 34.6 14.5
10/22/2018 07:00 457.20 0.00 -- 34.8 14.3
10/22/2018 06:00 457.20 0.00 -- 34.9 13.8
10/22/2018 05:00 457.20 0.00 -- 35.2 14.5
10/22/2018 04:00 457.20 0.00 -- 35.5 14.0
10/22/2018 03:00 457.20 0.00 -- 35.3 14.3
10/22/2018 02:00 457.21 0.00 -- 35.7 15.3
10/22/2018 01:00 457.20 0.00 -- 36.2 14.5
10/22/2018 00:00 457.21 0.00 0.00 36.0 14.3
10/21/2018 23:00 457.23 0.00 -- 36.2 15.8
10/21/2018 22:00 457.21 0.00 -- 36.7 15.0
10/21/2018 21:00 457.20 0.00 -- 37.4 15.0
10/21/2018 20:00 457.20 0.00 -- 37.1 14.5
10/21/2018 19:00 457.22 0.00 -- 36.6 15.5
10/21/2018 18:00 457.24 0.00 -- 37.3 16.8
10/21/2018 17:00 457.22 0.00 -- 37.1 16.3
10/21/2018 16:00 457.19 0.00 -- 39.0 15.3
10/21/2018 15:00 457.20 0.00 -- 38.8 15.3
10/21/2018 14:00 457.22 0.00 -- 39.0 15.8
10/21/2018 13:00 457.23 0.00 -- 40.0 16.0
10/21/2018 12:00 457.21 0.00 -- 41.1 15.8
10/21/2018 11:00 457.22 0.00 -- 42.5 16.8
10/21/2018 10:00 457.22 0.00 -- 41.0 16.3
10/21/2018 09:00 457.23 0.00 -- 41.8 16.5
10/21/2018 08:00 457.23 0.00 -- 42.6 16.8
10/21/2018 07:00 457.22 0.00 -- 43.5 16.3
10/21/2018 06:00 457.23 0.00 -- 44.5 16.3
10/21/2018 05:00 457.23 0.00 -- 36.8 16.0
10/21/2018 04:00 457.22 0.00 -- 35.6 16.0
10/21/2018 03:00 457.22 0.00 -- 35.9 16.0
10/21/2018 02:00 457.23 0.00 -- 36.5 16.3
10/21/2018 01:00 457.22 0.00 -- 37.2 16.3
10/21/2018 00:00 457.23 0.00 0.00 37.8 16.8
10/20/2018 23:00 457.23 0.00 -- 38.2 16.8
10/20/2018 22:00 457.23 0.00 -- 40.5 17.0
10/20/2018 21:00 457.23 0.00 -- 44.1 17.0
10/20/2018 20:00 457.23 0.00 -- 49.4 17.0
10/20/2018 19:00 457.23 0.00 -- 57.6 17.0
10/20/2018 18:00 457.23 0.00 -- 63.8 17.0
10/20/2018 17:00 457.24 0.00 -- 61.2 17.8
10/20/2018 16:00 457.23 0.00 -- 60.3 17.3
10/20/2018 15:00 457.24 0.00 -- 59.3 17.8
10/20/2018 14:00 457.23 0.00 -- 55.6 17.0
10/20/2018 13:00 457.24 0.00 -- 54.8 17.5
10/20/2018 12:00 457.23 0.00 -- 53.9 17.3
10/20/2018 11:00 457.24 0.00 -- 53.0 17.8
10/20/2018 10:00 457.24 0.00 -- 51.8 17.0
10/20/2018 09:00 457.24 0.00 -- 50.1 17.5
10/20/2018 08:00 457.24 0.00 -- 47.8 17.3
10/20/2018 07:00 457.23 0.00 -- 47.7 17.3
10/20/2018 06:00 457.24 0.00 -- 49.6 18.0
10/20/2018 05:00 457.24 0.00 -- 49.9 17.8
10/20/2018 04:00 457.24 0.00 -- 49.6 17.8
10/20/2018 03:00 457.24 0.00 -- 50.6 18.0
10/20/2018 02:00 457.24 0.00 -- 51.0 17.8
10/20/2018 01:00 457.24 0.00 -- 51.9 18.0
10/20/2018 00:00 457.24 0.00 0.00 51.6 18.0
10/19/2018 23:00 457.24 0.00 -- 52.6 18.0
10/19/2018 22:00 457.25 0.00 -- 49.9 18.3
10/19/2018 21:00 457.25 0.00 -- 48.0 18.0
10/19/2018 20:00 457.25 0.00 -- 49.9 18.0
10/19/2018 19:00 457.25 0.00 -- 56.5 18.5
10/19/2018 18:00 457.26 0.00 -- 59.2 19.0
10/19/2018 17:00 457.27 0.00 -- 59.4 19.3
10/19/2018 16:00 457.26 0.00 -- 57.2 18.8
10/19/2018 15:00 457.25 0.00 -- 54.3 19.0
10/19/2018 14:00 457.26 0.00 -- 51.4 18.8
10/19/2018 13:00 457.25 0.00 -- 48.3 19.3
10/19/2018 12:00 457.26 0.00 -- 46.2 19.3
10/19/2018 11:00 457.26 0.00 -- 42.6 18.8
10/19/2018 10:00 457.25 0.00 -- 38.2 19.0
10/19/2018 09:00 457.26 0.00 -- 34.3 19.3
10/19/2018 08:00 457.26 0.00 -- 35.2 19.0
10/19/2018 07:00 457.26 0.00 -- 35.3 19.0
10/19/2018 06:00 457.26 0.00 -- 35.7 19.8
10/19/2018 05:00 457.26 0.00 -- 33.1 19.0
10/19/2018 04:00 457.26 0.00 -- 31.5 19.3
10/19/2018 03:00 457.26 0.00 -- 30.9 19.0
10/19/2018 02:00 457.27 0.00 -- 30.3 20.0
10/19/2018 01:00 457.26 0.00 -- 28.8 20.0
10/19/2018 00:00 457.26 0.00 0.00 28.3 20.0
10/18/2018 23:00 457.26 0.00 -- 29.4 20.0
10/18/2018 22:00 457.27 0.00 -- 30.3 20.0
10/18/2018 21:00 457.27 0.00 -- 31.9 20.0
10/18/2018 20:00 457.27 0.00 -- 36.5 20.3
10/18/2018 19:00 457.27 0.00 -- 38.6 20.3
10/18/2018 18:00 457.27 0.00 -- 41.0 20.5
10/18/2018 17:00 457.28 0.00 -- 42.6 21.3
10/18/2018 16:00 457.30 0.00 -- 41.9 22.5
10/18/2018 15:00 457.27 0.00 -- 41.1 20.8
10/18/2018 14:00 457.28 0.01 -- 40.5 21.8
10/18/2018 13:00 457.26 0.00 -- 37.9 21.3
10/18/2018 12:00 457.28 0.00 -- 36.0 21.5
10/18/2018 11:00 457.28 0.00 -- 35.2 21.0
10/18/2018 10:00 457.29 0.00 -- 34.2 22.0
10/18/2018 09:00 457.31 0.00 -- 33.2 22.5
10/18/2018 08:00 457.29 0.00 -- 30.8 22.0
10/18/2018 07:00 457.28 0.00 -- 31.2 21.5
10/18/2018 06:00 457.29 0.00 -- 35.1 22.8
10/18/2018 05:00 457.30 0.00 -- 35.8 22.8
10/18/2018 04:00 457.29 0.00 -- 36.0 23.0
10/18/2018 03:00 457.29 0.00 -- 38.3 22.8
10/18/2018 02:00 457.30 0.00 -- 39.1 23.0
10/18/2018 01:00 457.29 0.00 -- 39.8 23.0
10/18/2018 00:00 457.31 0.00 0.01 41.7 23.5
10/17/2018 23:00 457.30 0.00 -- 42.8 23.0
10/17/2018 22:00 457.30 0.00 -- 42.9 23.3
10/17/2018 21:00 457.30 0.00 -- 43.2 23.5
10/17/2018 20:00 457.31 0.00 -- 44.5 23.8
10/17/2018 19:00 457.30 0.00 -- 47.3 23.8
10/17/2018 18:00 457.31 0.00 -- 50.5 24.8
10/17/2018 17:00 457.33 0.00 -- 50.1 25.0
10/17/2018 16:00 457.30 0.00 -- 55.8 24.5
10/17/2018 15:00 457.32 0.00 -- 54.9 25.0
10/17/2018 14:00 457.31 0.00 -- 53.5 24.8
10/17/2018 13:00 457.31 0.00 -- 51.3 24.3
10/17/2018 12:00 457.31 0.00 -- 49.8 24.3
10/17/2018 11:00 457.31 0.00 -- 44.6 24.3
10/17/2018 10:00 457.31 0.00 -- 43.5 24.3
10/17/2018 09:00 457.31 0.00 -- 37.1 24.0
10/17/2018 08:00 457.31 0.00 -- 35.9 24.3
10/17/2018 07:00 457.31 0.00 -- 35.6 24.5
10/17/2018 06:00 457.31 0.00 -- 34.6 24.5
10/17/2018 05:00 457.31 0.00 -- 33.8 24.3
10/17/2018 04:00 457.31 0.00 -- 33.4 24.8
10/17/2018 03:00 457.31 0.00 -- 32.9 24.5
10/17/2018 02:00 457.31 0.00 -- 33.7 24.0
10/17/2018 01:00 457.31 0.00 -- 35.5 24.8
10/17/2018 00:00 457.32 0.00 0.00 35.2 25.0
10/16/2018 23:00 457.32 0.00 -- 36.8 25.0
10/16/2018 22:00 457.32 0.00 -- 36.7 25.0
10/16/2018 21:00 457.32 0.00 -- 40.4 25.0
10/16/2018 20:00 457.32 0.00 -- 42.9 25.0
10/16/2018 19:00 457.32 0.00 -- 48.4 25.0
10/16/2018 18:00 457.33 0.00 -- 53.3 26.0
10/16/2018 17:00 457.33 0.00 -- 54.3 26.3
10/16/2018 16:00 457.33 0.00 -- 56.6 25.3
10/16/2018 15:00 457.33 0.00 -- 56.2 25.8
10/16/2018 14:00 457.33 0.00 -- 53.8 25.5
10/16/2018 13:00 457.33 0.00 -- 52.0 25.5
10/16/2018 12:00 457.32 0.00 -- 51.3 24.5
10/16/2018 11:00 457.31 0.00 -- 50.1 24.0
10/16/2018 10:00 457.31 0.00 -- 47.0 24.0
10/16/2018 09:00 457.31 0.00 -- 42.5 24.0
10/16/2018 08:00 457.30 0.00 -- 42.5 23.8
10/16/2018 07:00 457.33 0.00 -- 43.5 25.0
10/16/2018 06:00 457.32 0.00 -- 44.4 25.3
10/16/2018 05:00 457.33 0.00 -- 46.4 27.8
10/16/2018 04:00 457.33 0.00 -- 49.5 25.3
10/16/2018 03:00 457.32 0.00 -- 53.1 25.0
10/16/2018 02:00 457.31 0.00 -- 56.6 24.3
10/16/2018 01:00 457.31 0.02 -- 56.3 24.0
10/16/2018 00:00 457.31 0.04 0.02 55.2 23.5
10/15/2018 23:00 457.30 0.06 -- 47.8 23.0
10/15/2018 22:00 457.30 0.01 -- 46.3 22.8
10/15/2018 21:00 457.29 0.00 -- 46.7 22.8
10/15/2018 20:00 457.29 0.00 -- 45.9 22.0
10/15/2018 19:00 457.29 0.01 -- 45.3 22.5
10/15/2018 18:00 457.29 0.05 -- 45.3 22.3
10/15/2018 17:00 457.29 0.04 -- 45.5 22.0
10/15/2018 16:00 457.29 0.08 -- 45.2 21.8
10/15/2018 15:00 457.28 0.06 -- 44.3 21.0
10/15/2018 14:00 457.28 0.03 -- 43.7 21.0
10/15/2018 13:00 457.27 0.02 -- 44.1 20.3
10/15/2018 12:00 457.27 0.00 -- 45.0 20.5
10/15/2018 11:00 457.27 0.00 -- 44.5 20.0
10/15/2018 10:00 457.27 0.00 -- 38.3 20.8
10/15/2018 09:00 457.27 0.00 -- 34.2 21.0
10/15/2018 08:00 457.27 0.00 -- 31.8 21.0
10/15/2018 07:00 457.28 0.00 -- 31.9 21.0
10/15/2018 06:00 457.28 0.00 -- 33.3 21.0
10/15/2018 05:00 457.28 0.00 -- 33.9 21.0
10/15/2018 04:00 457.28 0.00 -- 34.3 21.0
10/15/2018 03:00 457.28 0.00 -- 35.9 21.0
10/15/2018 02:00 457.28 0.00 -- 35.6 21.5
10/15/2018 01:00 457.28 0.00 -- 35.8 21.5
10/15/2018 00:00 457.29 0.00 0.40 38.0 22.0
10/14/2018 23:00 457.28 0.00 -- 39.8 22.0
10/14/2018 22:00 457.29 0.00 -- 41.2 22.0
10/14/2018 21:00 457.29 0.00 -- 43.6 22.0
10/14/2018 20:00 457.29 0.00 -- 48.3 22.3
10/14/2018 19:00 457.30 0.00 -- 54.6 23.0
10/14/2018 18:00 457.30 0.00 -- 60.2 23.0
10/14/2018 17:00 457.30 0.00 -- 59.8 23.3
10/14/2018 16:00 457.31 0.00 -- 59.0 23.5
10/14/2018 15:00 457.30 0.00 -- 56.6 23.0
10/14/2018 14:00 457.30 0.00 -- 54.7 23.0
10/14/2018 13:00 457.31 0.00 -- 52.6 23.5
10/14/2018 12:00 457.30 0.00 -- 53.4 23.0
10/14/2018 11:00 457.30 0.00 -- 47.1 23.3
10/14/2018 10:00 457.30 0.00 -- 39.7 23.0
10/14/2018 09:00 457.30 0.00 -- 32.8 23.0
10/14/2018 08:00 457.30 0.00 -- 31.2 23.0
10/14/2018 07:00 457.30 0.00 -- 32.4 23.0
10/14/2018 06:00 457.30 0.00 -- 32.8 23.8
10/14/2018 05:00 457.30 0.00 -- 33.1 24.0
10/14/2018 04:00 457.30 0.00 -- 32.6 24.0
10/14/2018 03:00 457.31 0.00 -- 34.7 24.0
10/14/2018 02:00 457.31 0.00 -- 34.8 24.0
10/14/2018 01:00 457.31 0.00 -- 35.4 24.0
10/14/2018 00:00 457.31 0.00 0.00 37.2 24.0
10/13/2018 23:00 457.31 0.00 -- 39.0 24.0
10/13/2018 22:00 457.31 0.00 -- 40.5 24.3
10/13/2018 21:00 457.31 0.00 -- 42.4 24.5
10/13/2018 20:00 457.31 0.00 -- 44.4 24.0
10/13/2018 19:00 457.32 0.00 -- 47.6 24.8
10/13/2018 18:00 457.32 0.00 -- 49.9 25.0
10/13/2018 17:00 457.32 0.00 -- 48.5 24.5
10/13/2018 16:00 457.32 0.00 -- 51.8 25.0
10/13/2018 15:00 457.31 0.00 -- 47.0 25.0
10/13/2018 14:00 457.31 0.00 -- 46.8 24.5
10/13/2018 13:00 457.31 0.01 -- 47.5 24.5
10/13/2018 12:00 457.31 0.00 -- 45.6 24.5
10/13/2018 11:00 457.31 0.00 -- 45.8 24.0
10/13/2018 10:00 457.31 0.00 -- 44.3 24.0
10/13/2018 09:00 457.31 0.00 -- 43.7 24.0
10/13/2018 08:00 457.31 0.00 -- 44.4 24.0
10/13/2018 07:00 457.31 0.00 -- 42.6 24.0
10/13/2018 06:00 457.31 0.00 -- 43.1 24.5
10/13/2018 05:00 457.31 0.00 -- 41.7 24.0
10/13/2018 04:00 457.31 0.00 -- 40.7 24.0
10/13/2018 03:00 457.31 0.00 -- 42.0 24.0
10/13/2018 02:00 457.31 0.00 -- 45.4 24.5
10/13/2018 01:00 457.31 0.00 -- 47.0 24.3
10/13/2018 00:00 457.31 0.00 0.01 47.9 24.0
10/12/2018 23:00 457.31 0.00 -- 48.4 24.0
10/12/2018 22:00 457.31 0.00 -- 48.7 24.3
10/12/2018 21:00 457.31 0.00 -- 48.9 25.0
10/12/2018 20:00 457.33 0.00 -- 50.9 24.5
10/12/2018 19:00 457.31 0.00 -- 52.4 24.8
10/12/2018 18:00 457.32 0.00 -- 55.0 25.3
10/12/2018 17:00 457.31 0.00 -- 58.0 24.8
10/12/2018 16:00 457.32 0.00 -- 58.4 25.5
10/12/2018 15:00 457.33 0.00 -- 56.9 25.0
10/12/2018 14:00 457.31 0.00 -- 56.0 24.3
10/12/2018 13:00 457.31 0.00 -- 56.1 24.0
10/12/2018 12:00 457.29 0.00 -- 54.4 23.0
10/12/2018 11:00 457.30 0.00 -- 53.1 23.0
10/12/2018 10:00 457.30 0.00 -- 51.2 23.0
10/12/2018 09:00 457.30 0.00 -- 50.5 22.8
10/12/2018 08:00 457.29 0.00 -- 50.4 22.0
10/12/2018 07:00 457.29 0.00 -- 50.5 22.0
10/12/2018 06:00 457.29 0.00 -- 50.9 22.0
10/12/2018 05:00 457.29 0.00 -- 50.5 21.8
10/12/2018 04:00 457.28 0.00 -- 50.3 21.0
10/12/2018 03:00 457.28 0.00 -- 50.3 21.0
10/12/2018 02:00 457.27 0.01 -- 50.5 21.0
10/12/2018 01:00 457.27 0.00 -- 50.7 20.0
10/12/2018 00:00 457.27 0.00 0.01 50.6 20.0
10/11/2018 23:00 457.26 0.00 -- 50.1 19.5
10/11/2018 22:00 457.26 0.00 -- 50.4 19.0
10/11/2018 21:00 457.25 0.00 -- 51.0 19.0
10/11/2018 20:00 457.25 0.01 -- 51.0 18.8
10/11/2018 19:00 457.25 0.01 -- 51.4 18.0
10/11/2018 18:00 457.25 0.09 -- 51.4 17.8
10/11/2018 17:00 457.24 0.07 -- 52.4 17.0
10/11/2018 16:00 457.23 0.04 -- 52.7 16.5
10/11/2018 15:00 457.23 0.14 -- 52.7 16.0
10/11/2018 14:00 457.21 0.02 -- 52.7 15.0
10/11/2018 13:00 457.21 0.07 -- 51.7 14.8
10/11/2018 12:00 457.20 0.05 -- 51.8 14.0
10/11/2018 11:00 457.19 0.07 -- 50.8 14.0
10/11/2018 10:00 457.19 0.13 -- 50.6 13.0
10/11/2018 09:00 457.18 0.04 -- 50.8 12.3
10/11/2018 08:00 457.17 0.00 -- 51.3 12.0
10/11/2018 07:00 457.18 0.01 -- 51.9 12.0
10/11/2018 06:00 457.17 0.00 -- 53.2 12.0
10/11/2018 05:00 457.17 0.01 -- 54.3 12.0
10/11/2018 04:00 457.17 0.00 -- 54.3 12.0
10/11/2018 03:00 457.17 0.00 -- 56.1 12.0
10/11/2018 02:00 457.17 0.00 -- 57.5 12.0
10/11/2018 01:00 457.18 0.00 -- 59.5 12.8
10/11/2018 00:00 457.18 0.00 0.76 61.3 12.8
10/10/2018 23:00 457.18 0.00 -- 64.1 13.0
10/10/2018 22:00 457.19 0.00 -- 66.2 13.0
10/10/2018 21:00 457.19 0.00 -- 67.8 13.8
10/10/2018 20:00 457.19 0.00 -- 70.7 13.3
10/10/2018 19:00 457.19 0.00 -- 78.1 13.3
10/10/2018 18:00 457.19 0.00 -- 81.3 14.0
10/10/2018 17:00 457.20 0.00 -- 82.3 14.0
10/10/2018 16:00 457.20 0.00 -- 81.8 13.5
10/10/2018 15:00 457.20 0.00 -- 82.2 14.0
10/10/2018 14:00 457.19 0.00 -- 80.9 13.3
10/10/2018 13:00 457.19 0.00 -- 79.8 13.3
10/10/2018 12:00 457.18 0.00 -- 77.6 13.0
10/10/2018 11:00 457.18 0.00 -- 74.2 13.0
10/10/2018 10:00 457.18 0.00 -- 71.6 13.0
10/10/2018 09:00 457.18 0.00 -- 69.6 13.0
10/10/2018 08:00 457.19 0.00 -- 69.0 13.5
10/10/2018 07:00 457.18 0.00 -- 69.1 13.0
10/10/2018 06:00 457.19 0.00 -- 69.0 13.0
10/10/2018 05:00 457.18 0.00 -- 66.8 13.0
10/10/2018 04:00 457.18 0.00 -- 68.4 13.0
10/10/2018 03:00 457.18 0.00 -- 68.0 13.0
10/10/2018 02:00 457.18 0.00 -- 67.9 13.0
10/10/2018 01:00 457.18 0.00 -- 69.9 13.0
10/10/2018 00:00 457.19 0.00 0.00 69.6 13.0
10/09/2018 23:00 457.18 0.00 -- 68.7 13.0
10/09/2018 22:00 457.19 0.00 -- 70.0 13.0
10/09/2018 21:00 457.19 0.00 -- 70.8 13.0
10/09/2018 20:00 457.19 0.00 -- 72.0 13.3
10/09/2018 19:00 457.19 0.00 -- 75.1 13.8
10/09/2018 18:00 457.19 0.00 -- 77.0 13.8
10/09/2018 17:00 457.20 0.00 -- 78.1 14.3
10/09/2018 16:00 457.20 0.00 -- 78.1 14.0
10/09/2018 15:00 457.20 0.00 -- 75.7 13.8
10/09/2018 14:00 457.18 0.00 -- 77.2 12.5
10/09/2018 13:00 457.17 0.00 -- 76.9 12.5
10/09/2018 12:00 457.18 0.00 -- 72.1 12.5
10/09/2018 11:00 457.17 0.00 -- 67.5 12.3
10/09/2018 10:00 457.18 0.00 -- 55.5 12.0
10/09/2018 09:00 457.18 0.00 -- 52.5 12.3
10/09/2018 08:00 457.18 0.00 -- 51.4 12.3
10/09/2018 07:00 457.17 0.00 -- 51.1 12.5
10/09/2018 06:00 457.17 0.00 -- 52.5 12.5
10/09/2018 05:00 457.18 0.00 -- 52.7 13.0
10/09/2018 04:00 457.19 0.00 -- 51.5 13.5
10/09/2018 03:00 457.20 0.00 -- 51.3 13.3
10/09/2018 02:00 457.20 0.00 -- 51.1 13.8
10/09/2018 01:00 457.18 0.00 -- 51.1 12.8
10/09/2018 00:00 457.18 0.00 0.00 50.4 13.0
10/08/2018 23:00 457.19 0.00 -- 50.1 13.5
10/08/2018 22:00 457.19 0.00 -- 49.2 13.3
10/08/2018 21:00 457.19 0.00 -- 49.0 13.0
10/08/2018 20:00 457.19 0.00 -- 49.0 13.3
10/08/2018 19:00 457.19 0.00 -- 49.3 13.3
10/08/2018 18:00 457.19 0.00 -- 49.5 13.3
10/08/2018 17:00 457.19 0.00 -- 49.6 14.0
10/08/2018 16:00 457.19 0.00 -- 49.0 13.8
10/08/2018 15:00 457.19 0.00 -- 48.8 14.0
10/08/2018 14:00 457.19 0.00 -- 48.0 14.0
10/08/2018 13:00 457.19 0.00 -- 46.8 14.0
10/08/2018 12:00 457.19 0.00 -- 45.8 14.0
10/08/2018 11:00 457.20 0.00 -- 46.5 14.0
10/08/2018 10:00 457.20 0.00 -- 45.0 14.0
10/08/2018 09:00 457.20 0.01 -- 45.8 14.0
10/08/2018 08:00 457.20 0.00 -- 46.0 14.0
10/08/2018 07:00 457.20 0.00 -- 46.9 14.0
10/08/2018 06:00 457.20 0.00 -- 48.2 14.0
10/08/2018 05:00 457.20 0.00 -- 48.7 14.5
10/08/2018 04:00 457.20 0.00 -- 49.3 14.5
10/08/2018 03:00 457.20 0.00 -- 50.2 15.0
10/08/2018 02:00 457.21 0.00 -- 51.4 15.0
10/08/2018 01:00 457.21 0.01 -- 53.7 15.0
10/08/2018 00:00 457.21 0.00 0.02 53.0 15.0
10/07/2018 23:00 457.21 0.01 -- 54.8 15.0
10/07/2018 22:00 457.21 0.00 -- 55.6 15.0
10/07/2018 21:00 457.21 0.01 -- 56.8 15.0
10/07/2018 20:00 457.21 0.00 -- 58.7 15.0
10/07/2018 19:00 457.21 0.00 -- 61.5 15.0
10/07/2018 18:00 457.21 0.00 -- 62.6 15.0
10/07/2018 17:00 457.21 0.00 -- 63.1 15.0
10/07/2018 16:00 457.21 0.00 -- 65.0 15.0
10/07/2018 15:00 457.21 0.00 -- 66.3 15.0
10/07/2018 14:00 457.22 0.00 -- 69.1 15.5
10/07/2018 13:00 457.22 0.00 -- 67.3 16.0
10/07/2018 12:00 457.22 0.00 -- 60.0 16.0
10/07/2018 11:00 457.22 0.00 -- 56.2 16.0
10/07/2018 10:00 457.22 0.00 -- 54.4 16.0
10/07/2018 09:00 457.22 0.00 -- 54.0 16.0
10/07/2018 08:00 457.22 0.00 -- 53.5 16.0
10/07/2018 07:00 457.22 0.00 -- 53.2 16.0
10/07/2018 06:00 457.22 0.00 -- 53.7 16.0
10/07/2018 05:00 457.23 0.00 -- 53.3 16.3
10/07/2018 04:00 457.23 0.00 -- 53.7 16.5
10/07/2018 03:00 457.23 0.00 -- 55.7 16.8
10/07/2018 02:00 457.23 0.00 -- 55.9 17.3
10/07/2018 01:00 457.24 0.00 -- 55.6 17.8
10/07/2018 00:00 457.23 0.00 0.02 55.8 17.0
10/06/2018 23:00 457.24 0.00 -- 55.7 17.0
10/06/2018 22:00 457.24 0.00 -- 55.3 17.5
10/06/2018 21:00 457.24 0.00 -- 55.5 17.8
10/06/2018 20:00 457.24 0.00 -- 56.9 18.0
10/06/2018 19:00 457.24 0.00 -- 57.2 18.0
10/06/2018 18:00 457.24 0.00 -- 57.8 18.0
10/06/2018 17:00 457.25 0.00 -- 58.3 18.5
10/06/2018 16:00 457.25 0.00 -- 58.0 18.5
10/06/2018 15:00 457.25 0.00 -- 57.3 18.5
10/06/2018 14:00 457.25 0.00 -- 57.5 18.5
10/06/2018 13:00 457.25 0.00 -- 58.2 18.8
10/06/2018 12:00 457.25 0.00 -- 56.0 18.5
10/06/2018 11:00 457.25 0.00 -- 51.8 18.8
10/06/2018 10:00 457.25 0.00 -- 47.9 19.0
10/06/2018 09:00 457.25 0.00 -- 42.8 19.0
10/06/2018 08:00 457.25 0.00 -- 41.1 19.0
10/06/2018 07:00 457.26 0.00 -- 42.3 19.0
10/06/2018 06:00 457.26 0.00 -- 44.0 19.8
10/06/2018 05:00 457.26 0.00 -- 44.7 20.0
10/06/2018 04:00 457.26 0.00 -- 46.0 20.0
10/06/2018 03:00 457.27 0.00 -- 45.6 20.0
10/06/2018 02:00 457.27 0.00 -- 45.5 20.0
10/06/2018 01:00 457.27 0.00 -- 46.8 20.8
10/06/2018 00:00 457.27 0.00 0.00 46.3 21.0
10/05/2018 23:00 457.28 0.00 -- 47.0 21.0
10/05/2018 22:00 457.28 0.00 -- 48.3 21.0
10/05/2018 21:00 457.28 0.00 -- 50.7 21.3
10/05/2018 20:00 457.28 0.00 -- 52.1 22.0
10/05/2018 19:00 457.29 0.00 -- 57.0 22.0
10/05/2018 18:00 457.29 0.00 -- 60.6 22.0
10/05/2018 17:00 457.29 0.00 -- 64.9 22.0
10/05/2018 16:00 457.29 0.00 -- 64.3 22.0
10/05/2018 15:00 457.29 0.00 -- 62.5 22.3
10/05/2018 14:00 457.29 0.00 -- 62.4 22.8
10/05/2018 13:00 457.29 0.00 -- 57.5 22.0
10/05/2018 12:00 457.29 0.00 -- 54.5 22.8
10/05/2018 11:00 457.29 0.00 -- 54.4 23.0
10/05/2018 10:00 457.30 0.00 -- 51.6 23.0
10/05/2018 09:00 457.30 0.00 -- 43.1 23.0
10/05/2018 08:00 457.30 0.00 -- 44.1 23.5
10/05/2018 07:00 457.30 0.00 -- 46.1 23.5
10/05/2018 06:00 457.31 0.00 -- 48.6 24.0
10/05/2018 05:00 457.31 0.00 -- 51.7 24.3
10/05/2018 04:00 457.31 0.00 -- 53.3 24.8
10/05/2018 03:00 457.32 0.00 -- 58.4 25.5
10/05/2018 02:00 457.32 0.00 -- 59.4 25.0
10/05/2018 01:00 457.33 0.00 -- 63.2 25.8
10/05/2018 00:00 457.33 0.00 0.00 60.9 25.8
10/04/2018 23:00 457.33 0.00 -- 61.4 26.0
10/04/2018 22:00 457.33 0.00 -- 62.0 26.0
10/04/2018 21:00 457.33 0.00 -- 64.0 26.0
10/04/2018 20:00 457.33 0.00 -- 65.3 26.3
10/04/2018 19:00 457.34 0.00 -- 66.9 26.5
10/04/2018 18:00 457.34 0.00 -- 67.9 26.5
10/04/2018 17:00 457.34 0.00 -- 67.2 27.0
10/04/2018 16:00 457.34 0.00 -- 66.6 26.8
10/04/2018 15:00 457.34 0.00 -- 66.4 27.0
10/04/2018 14:00 457.35 0.00 -- 66.5 27.5
10/04/2018 13:00 457.34 0.00 -- 62.5 27.8
10/04/2018 12:00 457.35 0.00 -- 62.7 28.0
10/04/2018 11:00 457.35 0.00 -- 61.8 28.0
10/04/2018 10:00 457.34 0.00 -- 61.1 27.5
10/04/2018 09:00 457.35 0.00 -- 58.1 28.5
10/04/2018 08:00 457.36 0.00 -- 57.5 28.5
10/04/2018 07:00 457.35 0.00 -- 57.9 28.5
10/04/2018 06:00 457.35 0.00 -- 58.6 28.3
10/04/2018 05:00 457.35 0.00 -- 58.4 28.3
10/04/2018 04:00 457.35 0.00 -- 58.0 28.8
10/04/2018 03:00 457.35 0.00 -- 58.1 28.8
10/04/2018 02:00 457.36 0.00 -- 58.3 29.0
10/04/2018 01:00 457.36 0.00 -- 58.5 28.8
10/04/2018 00:00 457.36 0.00 0.00 59.0 29.0
10/03/2018 23:00 457.36 0.00 -- 59.2 29.0
10/03/2018 22:00 457.36 0.00 -- 59.5 29.0
10/03/2018 21:00 457.36 0.00 -- 59.5 29.0
10/03/2018 20:00 457.36 0.00 -- 60.4 29.0
10/03/2018 19:00 457.36 0.00 -- 63.2 29.0
10/03/2018 18:00 457.36 0.00 -- 65.9 29.0
10/03/2018 17:00 457.36 0.00 -- 66.9 29.0
10/03/2018 16:00 457.36 0.00 -- 64.5 29.0
10/03/2018 15:00 457.36 0.00 -- 64.9 29.0
10/03/2018 14:00 457.35 0.00 -- 63.9 28.5
10/03/2018 13:00 457.35 0.00 -- 60.3 28.0
10/03/2018 12:00 457.35 0.00 -- 55.2 28.0
10/03/2018 11:00 457.35 0.00 -- 52.5 27.5
10/03/2018 10:00 457.35 0.00 -- 50.5 27.8
10/03/2018 09:00 457.34 0.00 -- 49.5 27.3
10/03/2018 08:00 457.34 0.00 -- 48.9 27.0
10/03/2018 07:00 457.34 0.00 -- 48.7 27.0
10/03/2018 06:00 457.34 0.00 -- 48.9 27.0
10/03/2018 05:00 457.34 0.00 -- 49.1 27.0
10/03/2018 04:00 457.33 0.00 -- 49.0 26.0
10/03/2018 03:00 457.33 0.00 -- 49.0 26.0
10/03/2018 02:00 457.33 0.00 -- 49.0 26.0
10/03/2018 01:00 457.33 0.04 -- 48.1 25.5
10/03/2018 00:00 457.32 0.09 0.04 48.6 24.5
10/02/2018 23:00 457.31 0.01 -- 49.2 24.0
10/02/2018 22:00 457.31 0.00 -- 49.1 24.0
10/02/2018 21:00 457.31 0.00 -- 49.5 24.0
10/02/2018 20:00 457.30 0.02 -- 49.4 23.0
10/02/2018 19:00 457.30 0.04 -- 49.4 23.0
10/02/2018 18:00 457.30 0.05 -- 49.6 22.8
10/02/2018 17:00 457.29 0.06 -- 49.7 22.0
10/02/2018 16:00 457.28 0.10 -- 49.4 21.3
10/02/2018 15:00 457.27 0.01 -- 49.4 21.0
10/02/2018 14:00 457.27 0.00 -- 49.8 20.8
10/02/2018 13:00 457.27 0.01 -- 49.7 20.3
10/02/2018 12:00 457.27 0.00 -- 49.8 20.8
10/02/2018 11:00 457.27 0.00 -- 50.0 20.8
10/02/2018 10:00 457.27 0.01 -- 49.8 20.5
10/02/2018 09:00 457.27 0.04 -- 49.6 20.0
10/02/2018 08:00 457.27 0.13 -- 50.0 19.5
10/02/2018 07:00 457.26 0.06 -- 50.0 19.0
10/02/2018 06:00 457.25 0.06 -- 51.0 18.5
10/02/2018 05:00 457.25 0.01 -- 51.3 18.0
10/02/2018 04:00 457.25 0.00 -- 51.6 18.0
10/02/2018 03:00 457.25 0.00 -- 51.0 18.5
10/02/2018 02:00 457.25 0.00 -- 51.7 18.8
10/02/2018 01:00 457.25 0.00 -- 51.4 19.0
10/02/2018 00:00 457.25 0.00 0.70 52.2 19.0
10/01/2018 23:00 457.25 0.00 -- 51.7 19.0
10/01/2018 22:00 457.25 0.00 -- 51.8 19.0
10/01/2018 21:00 457.25 0.00 -- 52.7 19.0
10/01/2018 20:00 457.26 0.00 -- 52.1 19.0
10/01/2018 19:00 457.26 0.00 -- 53.1 19.0
10/01/2018 18:00 457.26 0.00 -- 53.2 19.0
10/01/2018 17:00 457.26 0.00 -- 53.9 19.0
10/01/2018 16:00 457.26 0.00 -- 53.1 19.0
10/01/2018 15:00 457.26 0.01 -- 52.5 19.5
10/01/2018 14:00 457.26 0.00 -- 52.6 19.0
10/01/2018 13:00 457.26 0.04 -- 51.5 19.0
10/01/2018 12:00 457.26 0.03 -- 51.1 19.0
10/01/2018 11:00 457.25 0.06 -- 50.4 19.0
10/01/2018 10:00 457.25 0.06 -- 50.5 18.0
10/01/2018 09:00 457.25 0.01 -- 50.7 18.0
10/01/2018 08:00 457.24 0.00 -- 50.6 18.0
10/01/2018 07:00 457.24 0.00 -- 51.2 18.0
10/01/2018 06:00 457.24 0.00 -- 50.8 18.0
10/01/2018 05:00 457.24 0.00 -- 50.4 18.0
10/01/2018 04:00 457.24 0.00 -- 49.9 18.0
10/01/2018 03:00 457.24 0.00 -- 50.1 18.0
10/01/2018 02:00 457.24 0.00 -- 50.0 18.0
10/01/2018 01:00 457.24 0.00 -- 49.1 18.0
10/01/2018 00:00 457.24 0.00 0.21 49.0 18.0
09/30/2018 23:00 457.24 0.00 -- 50.4 18.0
09/30/2018 22:00 457.24 0.00 -- 49.3 18.0
09/30/2018 21:00 457.24 0.00 -- 50.1 18.0
09/30/2018 20:00 457.24 0.00 -- 54.2 18.0
09/30/2018 19:00 457.24 0.00 -- 60.9 18.0
09/30/2018 18:00 457.25 0.00 -- 63.8 18.0
09/30/2018 17:00 457.24 0.00 -- 64.8 18.0
09/30/2018 16:00 457.24 0.00 -- 61.1 18.0
09/30/2018 15:00 457.24 0.00 -- 61.6 17.8
09/30/2018 14:00 457.24 0.00 -- 60.7 17.5
09/30/2018 13:00 457.24 0.00 -- 58.8 17.3
09/30/2018 12:00 457.24 0.00 -- 59.3 17.3
09/30/2018 11:00 457.23 0.00 -- 55.5 17.0
09/30/2018 10:00 457.23 0.00 -- 50.4 17.0
09/30/2018 09:00 457.23 0.00 -- 43.5 17.0
09/30/2018 08:00 457.23 0.00 -- 41.2 17.0
09/30/2018 07:00 457.23 0.00 -- 42.4 17.0
09/30/2018 06:00 457.23 0.00 -- 42.6 17.0
09/30/2018 05:00 457.23 0.00 -- 43.0 17.0
09/30/2018 04:00 457.23 0.00 -- 44.4 17.0
09/30/2018 03:00 457.24 0.00 -- 45.7 17.5
09/30/2018 02:00 457.24 0.00 -- 47.1 18.0
09/30/2018 01:00 457.24 0.00 -- 48.8 18.0
09/30/2018 00:00 457.24 0.00 0.00 48.1 18.0
09/29/2018 23:00 457.25 0.00 -- 48.4 18.0
09/29/2018 22:00 457.25 0.00 -- 50.3 18.0
09/29/2018 21:00 457.25 0.00 -- 53.4 18.3
09/29/2018 20:00 457.25 0.00 -- 55.8 18.8
09/29/2018 19:00 457.25 0.00 -- 62.3 19.0
09/29/2018 18:00 457.25 0.00 -- 65.8 19.0
09/29/2018 17:00 457.26 0.00 -- 67.2 19.3
09/29/2018 16:00 457.26 0.00 -- 67.3 19.3
09/29/2018 15:00 457.26 0.00 -- 66.9 20.0
09/29/2018 14:00 457.26 0.00 -- 65.3 19.8
09/29/2018 13:00 457.26 0.00 -- 63.2 19.0
09/29/2018 12:00 457.26 0.00 -- 62.6 19.8
09/29/2018 11:00 457.27 0.00 -- 59.8 20.0
09/29/2018 10:00 457.26 0.00 -- 54.9 20.0
09/29/2018 09:00 457.26 0.00 -- 47.3 20.0
09/29/2018 08:00 457.27 0.00 -- 45.5 20.0
09/29/2018 07:00 457.27 0.00 -- 44.6 20.0
09/29/2018 06:00 457.27 0.00 -- 44.3 21.0
09/29/2018 05:00 457.28 0.00 -- 45.2 21.0
09/29/2018 04:00 457.28 0.00 -- 46.3 21.0
09/29/2018 03:00 457.28 0.00 -- 47.0 21.0
09/29/2018 02:00 457.28 0.00 -- 46.3 22.0
09/29/2018 01:00 457.28 0.00 -- 48.5 22.0
09/29/2018 00:00 457.29 0.00 0.00 49.9 22.0
09/28/2018 23:00 457.29 0.00 -- 50.9 22.0
09/28/2018 22:00 457.29 0.00 -- 52.4 22.5
09/28/2018 21:00 457.30 0.00 -- 56.5 23.0
09/28/2018 20:00 457.30 0.00 -- 57.6 23.3
09/28/2018 19:00 457.30 0.00 -- 62.5 23.3
09/28/2018 18:00 457.30 0.00 -- 62.8 23.5
09/28/2018 17:00 457.31 0.00 -- 65.4 23.5
09/28/2018 16:00 457.30 0.00 -- 62.0 23.3
09/28/2018 15:00 457.30 0.00 -- 65.8 23.5
09/28/2018 14:00 457.30 0.00 -- 62.4 23.0
09/28/2018 13:00 457.30 0.00 -- 59.4 23.0
09/28/2018 12:00 457.30 0.00 -- 57.2 23.3
09/28/2018 11:00 457.30 0.00 -- 54.8 23.5
09/28/2018 10:00 457.30 0.01 -- 53.8 24.0
09/28/2018 09:00 457.30 0.01 -- 53.9 24.0
09/28/2018 08:00 457.31 0.02 -- 54.0 24.0
09/28/2018 07:00 457.31 0.01 -- 54.7 24.0
09/28/2018 06:00 457.31 0.01 -- 54.4 24.0
09/28/2018 05:00 457.31 0.00 -- 54.9 24.0
09/28/2018 04:00 457.31 0.00 -- 55.3 24.0
09/28/2018 03:00 457.31 0.00 -- 55.0 24.0
09/28/2018 02:00 457.31 0.00 -- 55.4 24.0
09/28/2018 01:00 457.31 0.00 -- 56.9 24.3
09/28/2018 00:00 457.31 0.00 0.06 57.0 24.3
09/27/2018 23:00 457.31 0.00 -- 58.3 24.8
09/27/2018 22:00 457.31 0.00 -- 59.1 25.0
09/27/2018 21:00 457.32 0.00 -- 59.9 25.0
09/27/2018 20:00 457.32 0.00 -- 62.7 25.0
09/27/2018 19:00 457.32 0.00 -- 66.0 25.0
09/27/2018 18:00 457.32 0.00 -- 72.4 25.0
09/27/2018 17:00 457.32 0.00 -- 71.4 25.0
09/27/2018 16:00 457.31 0.00 -- 72.9 24.3
09/27/2018 15:00 457.31 0.00 -- 69.1 24.3
09/27/2018 14:00 457.31 0.00 -- 71.2 24.0
09/27/2018 13:00 457.31 0.00 -- 70.8 24.0
09/27/2018 12:00 457.31 0.00 -- 68.4 24.0
09/27/2018 11:00 457.31 0.00 -- 64.0 23.8
09/27/2018 10:00 457.30 0.00 -- 57.4 23.3
09/27/2018 09:00 457.30 0.00 -- 52.7 23.0
09/27/2018 08:00 457.30 0.00 -- 52.9 23.0
09/27/2018 07:00 457.30 0.00 -- 55.0 23.0
09/27/2018 06:00 457.30 0.00 -- 56.8 23.0
09/27/2018 05:00 457.30 0.00 -- 59.3 23.0
09/27/2018 04:00 457.30 0.00 -- 61.4 23.0
09/27/2018 03:00 457.29 0.00 -- 62.9 22.5
09/27/2018 02:00 457.30 0.00 -- 62.7 23.0
09/27/2018 01:00 457.30 0.00 -- 64.0 22.8
09/27/2018 00:00 457.29 0.00 0.00 67.7 22.0
09/26/2018 23:00 457.29 0.19 -- 68.5 22.0
09/26/2018 22:00 457.27 0.05 -- 72.1 19.8
09/26/2018 21:00 457.26 0.01 -- 73.1 19.3
09/26/2018 20:00 457.26 0.00 -- 76.0 19.3
09/26/2018 19:00 457.26 0.00 -- 75.9 19.0
09/26/2018 18:00 457.25 0.00 -- 77.1 19.0
09/26/2018 17:00 457.26 0.00 -- 78.1 18.5
09/26/2018 16:00 457.25 0.00 -- 75.9 17.5
09/26/2018 15:00 457.24 0.00 -- 76.0 17.8
09/26/2018 14:00 457.23 0.00 -- 75.7 17.0
09/26/2018 13:00 457.22 0.00 -- 67.8 16.0
09/26/2018 12:00 457.22 0.00 -- 62.0 16.0
09/26/2018 11:00 457.21 0.00 -- 59.0 15.0
09/26/2018 10:00 457.21 0.00 -- 56.7 15.0
09/26/2018 09:00 457.21 0.00 -- 56.9 14.5
09/26/2018 08:00 457.20 0.00 -- 55.2 14.0
09/26/2018 07:00 457.20 0.00 -- 54.7 14.0
09/26/2018 06:00 457.19 0.00 -- 54.3 14.0
09/26/2018 05:00 457.19 0.00 -- 54.7 13.0
09/26/2018 04:00 457.19 0.02 -- 54.4 13.0
09/26/2018 03:00 457.18 0.02 -- 53.7 13.0
09/26/2018 02:00 457.18 0.04 -- 53.5 12.0
09/26/2018 01:00 457.17 0.05 -- 53.6 11.8
09/26/2018 00:00 457.16 0.07 0.38 53.0 11.0
09/25/2018 23:00 457.15 0.09 -- 52.7 10.0
09/25/2018 22:00 457.14 0.11 -- 52.2 9.5
09/25/2018 21:00 457.13 0.19 -- 51.1 8.5
09/25/2018 20:00 457.11 0.10 -- 50.6 7.3
09/25/2018 19:00 457.10 0.13 -- 51.8 7.0
09/25/2018 18:00 457.09 0.14 -- 50.1 5.8
09/25/2018 17:00 457.08 0.07 -- 50.5 5.0
09/25/2018 16:00 457.06 0.04 -- 50.2 5.0
09/25/2018 15:00 457.06 0.06 -- 49.4 4.3
09/25/2018 14:00 457.06 0.03 -- 48.9 4.0
09/25/2018 13:00 457.05 0.00 -- 49.7 4.0
09/25/2018 12:00 457.05 0.00 -- 47.5 4.0
09/25/2018 11:00 457.05 0.00 -- 46.2 4.0
09/25/2018 10:00 457.05 0.00 -- 43.6 4.0
09/25/2018 09:00 457.05 0.00 -- 41.8 4.0
09/25/2018 08:00 457.05 0.00 -- 41.7 4.0
09/25/2018 07:00 457.05 0.00 -- 40.9 4.0
09/25/2018 06:00 457.05 0.00 -- 40.9 4.0
09/25/2018 05:00 457.05 0.00 -- 41.1 4.0
09/25/2018 04:00 457.05 0.00 -- 42.4 4.0
09/25/2018 03:00 457.06 0.00 -- 41.2 4.0
09/25/2018 02:00 457.06 0.00 -- 40.9 4.0
09/25/2018 01:00 457.06 0.00 -- 41.0 4.0
09/25/2018 00:00 457.06 0.00 1.03 42.5 4.3
09/24/2018 23:00 457.06 0.00 -- 43.6 5.0
09/24/2018 22:00 457.06 0.00 -- 45.1 5.0
09/24/2018 21:00 457.06 0.00 -- 47.6 5.0
09/24/2018 20:00 457.06 0.00 -- 52.5 5.0
09/24/2018 19:00 457.07 0.00 -- 59.1 5.0
09/24/2018 18:00 457.07 0.00 -- 61.5 5.0
09/24/2018 17:00 457.07 0.00 -- 60.5 5.0
09/24/2018 16:00 457.07 0.00 -- 59.6 5.0
09/24/2018 15:00 457.07 0.00 -- 59.6 5.0
09/24/2018 14:00 457.06 0.00 -- 56.8 5.0
09/24/2018 13:00 457.06 0.00 -- 54.7 4.3
09/24/2018 12:00 457.06 0.00 -- 52.4 4.3
09/24/2018 11:00 457.06 0.00 -- 49.0 4.3
09/24/2018 10:00 457.06 0.00 -- 47.1 4.8
09/24/2018 09:00 457.06 0.00 -- 46.6 5.0
09/24/2018 08:00 457.06 0.00 -- 47.0 5.0
09/24/2018 07:00 457.07 0.00 -- 46.5 5.0
09/24/2018 06:00 457.07 0.00 -- 44.5 5.0
09/24/2018 05:00 457.07 0.00 -- 43.0 5.0
09/24/2018 04:00 457.07 0.00 -- 44.3 5.0
09/24/2018 03:00 457.07 0.00 -- 44.4 5.0
09/24/2018 02:00 457.07 0.00 -- 46.3 5.0
09/24/2018 01:00 457.08 0.00 -- 46.9 5.0
09/24/2018 00:00 457.08 0.00 0.00 48.2 5.5
09/23/2018 23:00 457.08 0.00 -- 50.8 6.0
09/23/2018 22:00 457.08 0.00 -- 52.6 6.0
09/23/2018 21:00 457.08 0.00 -- 55.1 6.0
09/23/2018 20:00 457.08 0.00 -- 58.0 6.0
09/23/2018 19:00 457.08 0.00 -- 66.1 6.0
09/23/2018 18:00 457.09 0.00 -- 70.7 6.0
09/23/2018 17:00 457.08 0.00 -- 69.2 6.0
09/23/2018 16:00 457.08 0.00 -- 68.0 6.0
09/23/2018 15:00 457.08 0.00 -- 68.3 6.0
09/23/2018 14:00 457.08 0.00 -- 65.6 6.0
09/23/2018 13:00 457.08 0.00 -- 62.9 6.0
09/23/2018 12:00 457.08 0.00 -- 62.0 6.0
09/23/2018 11:00 457.08 0.00 -- 53.5 5.3
09/23/2018 10:00 457.08 0.00 -- 48.1 6.0
09/23/2018 09:00 457.08 0.00 -- 40.2 6.0
09/23/2018 08:00 457.08 0.00 -- 38.0 6.0
09/23/2018 07:00 457.08 0.00 -- 38.6 6.0
09/23/2018 06:00 457.08 0.00 -- 40.3 6.0
09/23/2018 05:00 457.08 0.00 -- 42.0 6.0
09/23/2018 04:00 457.08 0.00 -- 42.0 6.0
09/23/2018 03:00 457.08 0.00 -- 43.3 6.0
09/23/2018 02:00 457.09 0.00 -- 46.8 6.0
09/23/2018 01:00 457.09 0.00 -- 45.6 6.0
09/23/2018 00:00 457.09 0.00 0.00 46.6 6.0
09/22/2018 23:00 457.09 0.00 -- 47.4 6.0
09/22/2018 22:00 457.09 0.00 -- 50.4 6.0
09/22/2018 21:00 457.09 0.00 -- 53.0 6.5
09/22/2018 20:00 457.10 0.00 -- 56.1 7.0
09/22/2018 19:00 457.10 0.00 -- 58.8 7.0
09/22/2018 18:00 457.11 0.00 -- 62.5 7.0
09/22/2018 17:00 457.10 0.00 -- 63.4 7.0
09/22/2018 16:00 457.10 0.00 -- 63.3 7.0
09/22/2018 15:00 457.11 0.00 -- 65.0 7.3
09/22/2018 14:00 457.10 0.00 -- 64.7 7.0
09/22/2018 13:00 457.11 0.00 -- 59.8 7.8
09/22/2018 12:00 457.10 0.00 -- 60.1 7.3
09/22/2018 11:00 457.11 0.00 -- 60.2 7.5
09/22/2018 10:00 457.10 0.00 -- 61.9 7.5
09/22/2018 09:00 457.10 0.00 -- 62.3 7.0
09/22/2018 08:00 457.10 0.00 -- 62.4 7.0
09/22/2018 07:00 457.10 0.00 -- 66.0 7.8
09/22/2018 06:00 457.13 0.00 -- 68.9 8.3
09/22/2018 05:00 457.12 0.00 -- 66.5 8.0
09/22/2018 04:00 457.11 0.02 -- 65.2 7.8
09/22/2018 03:00 457.11 0.00 -- 65.0 7.8
09/22/2018 02:00 457.11 0.00 -- 63.8 7.5
09/22/2018 01:00 457.11 0.00 -- 63.4 7.8
09/22/2018 00:00 457.11 0.00 0.02 61.2 7.3
09/21/2018 23:00 457.11 0.00 -- 60.1 7.3
09/21/2018 22:00 457.11 0.00 -- 59.5 7.8
09/21/2018 21:00 457.11 0.01 -- 58.3 7.8
09/21/2018 20:00 457.11 0.00 -- 58.2 7.5
09/21/2018 19:00 457.11 0.00 -- 59.0 8.0
09/21/2018 18:00 457.11 0.00 -- 59.6 8.0
09/21/2018 17:00 457.11 0.00 -- 60.4 8.0
09/21/2018 16:00 457.11 0.00 -- 59.6 8.0
09/21/2018 15:00 457.11 0.00 -- 59.4 8.0
09/21/2018 14:00 457.11 0.00 -- 60.6 8.0
09/21/2018 13:00 457.11 0.00 -- 59.6 8.0
09/21/2018 12:00 457.11 0.01 -- 58.4 8.0
09/21/2018 11:00 457.11 0.00 -- 58.7 8.0
09/21/2018 10:00 457.11 0.00 -- 58.9 8.0
09/21/2018 09:00 457.11 0.00 -- 58.5 8.0
09/21/2018 08:00 457.11 0.00 -- 58.6 8.0
09/21/2018 07:00 457.12 0.00 -- 57.9 8.0
09/21/2018 06:00 457.11 0.00 -- 58.0 8.0
09/21/2018 05:00 457.12 0.00 -- 58.0 8.0
09/21/2018 04:00 457.12 0.00 -- 57.8 8.0
09/21/2018 03:00 457.12 0.00 -- 57.1 8.0
09/21/2018 02:00 457.12 0.00 -- 56.6 8.0
09/21/2018 01:00 457.12 0.00 -- 55.3 8.0
09/21/2018 00:00 457.12 0.00 0.02 55.8 8.0
09/20/2018 23:00 457.12 0.00 -- 57.4 8.0
09/20/2018 22:00 457.12 0.00 -- 59.5 8.5
09/20/2018 21:00 457.12 0.00 -- 60.2 8.8
09/20/2018 20:00 457.13 0.00 -- 61.5 9.0
09/20/2018 19:00 457.13 0.00 -- 63.9 9.0
09/20/2018 18:00 457.13 0.00 -- 64.3 9.0
09/20/2018 17:00 457.13 0.00 -- 64.9 9.0
09/20/2018 16:00 457.13 0.00 -- 65.0 9.0
09/20/2018 15:00 457.13 0.00 -- 62.3 9.0
09/20/2018 14:00 457.13 0.00 -- 62.2 9.0
09/20/2018 13:00 457.13 0.00 -- 64.2 9.0
09/20/2018 12:00 457.13 0.00 -- 61.2 9.0
09/20/2018 11:00 457.13 0.00 -- 59.1 9.0
09/20/2018 10:00 457.13 0.00 -- 58.3 9.0
09/20/2018 09:00 457.13 0.00 -- 56.6 9.0
09/20/2018 08:00 457.14 0.00 -- 55.9 9.0
09/20/2018 07:00 457.14 0.00 -- 56.7 9.0
09/20/2018 06:00 457.14 0.00 -- 56.9 9.3
09/20/2018 05:00 457.14 0.00 -- 57.6 10.0
09/20/2018 04:00 457.14 0.00 -- 57.9 10.0
09/20/2018 03:00 457.14 0.00 -- 57.9 10.0
09/20/2018 02:00 457.14 0.00 -- 58.8 10.0
09/20/2018 01:00 457.14 0.00 -- 59.1 10.0
09/20/2018 00:00 457.14 0.00 0.00 59.2 10.0
09/19/2018 23:00 457.15 0.00 -- 59.7 10.0
09/19/2018 22:00 457.15 0.00 -- 61.0 10.0
09/19/2018 21:00 457.15 0.00 -- 61.1 10.0
09/19/2018 20:00 457.15 0.00 -- 61.5 10.0
09/19/2018 19:00 457.15 0.00 -- 62.5 10.0
09/19/2018 18:00 457.15 0.00 -- 62.9 10.8
09/19/2018 17:00 457.15 0.00 -- 62.8 10.5
09/19/2018 16:00 457.15 0.00 -- 64.0 11.0
09/19/2018 15:00 457.15 0.00 -- 63.8 10.8
09/19/2018 14:00 457.15 0.00 -- 62.5 11.0
09/19/2018 13:00 457.15 0.00 -- 61.9 11.0
09/19/2018 12:00 457.16 0.00 -- 59.7 11.0
09/19/2018 11:00 457.16 0.00 -- 58.6 11.0
09/19/2018 10:00 457.16 0.00 -- 58.4 11.0
09/19/2018 09:00 457.16 0.00 -- 58.4 11.0
09/19/2018 08:00 457.16 0.00 -- 59.6 11.0
09/19/2018 07:00 457.16 0.00 -- 60.7 11.3
09/19/2018 06:00 457.16 0.00 -- 61.2 11.8
09/19/2018 05:00 457.17 0.00 -- 62.6 11.5
09/19/2018 04:00 457.17 0.00 -- 63.1 12.0
09/19/2018 03:00 457.17 0.00 -- 65.0 12.0
09/19/2018 02:00 457.17 0.00 -- 65.0 12.0
09/19/2018 01:00 457.17 0.00 -- 66.7 12.0
09/19/2018 00:00 457.17 0.00 0.00 68.6 12.0
09/18/2018 23:00 457.17 0.00 -- 68.9 12.0
09/18/2018 22:00 457.18 0.00 -- 71.6 12.0
09/18/2018 21:00 457.18 0.00 -- 73.4 12.0
09/18/2018 20:00 457.18 0.00 -- 75.6 12.3
09/18/2018 19:00 457.18 0.00 -- 79.2 12.5
09/18/2018 18:00 457.18 0.00 -- 84.6 12.5
09/18/2018 17:00 457.18 0.00 -- 84.1 12.3
09/18/2018 16:00 457.18 0.00 -- 84.8 12.5
09/18/2018 15:00 457.18 0.00 -- 81.5 12.3
09/18/2018 14:00 -- -- -- 76.8 12.0
09/18/2018 13:00 -- -- -- 74.2 12.0
09/18/2018 12:00 -- -- -- 69.6 12.0
09/18/2018 11:00 -- -- -- 69.1 12.0
09/18/2018 10:00 -- -- -- 69.3 12.0
09/18/2018 09:00 -- -- -- 69.0 12.0
09/18/2018 08:00 -- -- -- 68.2 12.0
09/18/2018 07:00 -- -- -- 68.9 12.0
09/18/2018 06:00 -- -- -- 69.8 11.8
09/18/2018 05:00 -- -- -- 71.1 11.8
09/18/2018 04:00 -- -- -- 70.6 11.8
09/18/2018 03:00 -- -- -- 70.9 12.0
09/18/2018 02:00 -- -- -- 71.0 11.3
09/18/2018 01:00 -- -- -- 71.5 11.5
09/18/2018 00:00 -- -- 0.06 71.9 11.8